SWR283 FAOR-LSZH
Flight info
| Callsign | SWR283 |
|---|---|
| Flight time | 10h 39m |
| Altitude | 36000 |
| Route | VASUR3B VASUR UZ21 ITROL UQ25 RUDAS UT941 IBRIT UM998 CSO UM2 CIRTA DCT ETOIL DCT OMEDA DCT TORTU DCT ERTEV DCT CANNE Z651 KELIP |
| Aircraft | A343/H-SDE2E3FGHIJ4J5M1RWXY/LB1D1 |
Departure
| Time | 2026-05-07 04:51 |
|---|---|
| Airport | O.R. Tambo International Airport (FAOR) |
Arrival
| Time | 2026-05-07 15:31 |
|---|---|
| Airport | Zürich Airport (LSZH) |
| Time | Latitude | Longitude | Altitude | Speed | Heading |
|---|---|---|---|---|---|
| 2026-05-07 04:36 | -26.12924 | 28.23656 | 5554 ft | 0 kts | 186° |
| 2026-05-07 04:42 | -26.12923 | 28.23656 | 5550 ft | 1 kts | 186° |
| 2026-05-07 04:43 | -26.12899 | 28.23659 | 5551 ft | 4 kts | 186° |
| 2026-05-07 04:43 | -26.12872 | 28.23662 | 5553 ft | 4 kts | 186° |
| 2026-05-07 04:43 | -26.12850 | 28.23664 | 5552 ft | 4 kts | 172° |
| 2026-05-07 04:43 | -26.12834 | 28.23659 | 5552 ft | 1 kts | 136° |
| 2026-05-07 04:45 | -26.12835 | 28.23660 | 5552 ft | 1 kts | 135° |
| 2026-05-07 04:45 | -26.12834 | 28.23667 | 5554 ft | 1 kts | 94° |
| 2026-05-07 04:46 | -26.12832 | 28.23704 | 5554 ft | 8 kts | 90° |
| 2026-05-07 04:46 | -26.12824 | 28.23782 | 5554 ft | 13 kts | 56° |
| 2026-05-07 04:46 | -26.12728 | 28.23826 | 5551 ft | 17 kts | 15° |
| 2026-05-07 04:46 | -26.12594 | 28.23867 | 5551 ft | 23 kts | 16° |
| 2026-05-07 04:47 | -26.12422 | 28.23920 | 5548 ft | 28 kts | 15° |
| 2026-05-07 04:47 | -26.12220 | 28.23983 | 5544 ft | 26 kts | 15° |
| 2026-05-07 04:47 | -26.12042 | 28.24039 | 5537 ft | 28 kts | 15° |
| 2026-05-07 04:47 | -26.11850 | 28.24098 | 5531 ft | 30 kts | 15° |
| 2026-05-07 04:48 | -26.11654 | 28.24158 | 5530 ft | 28 kts | 15° |
| 2026-05-07 04:48 | -26.11468 | 28.24215 | 5528 ft | 27 kts | 16° |
| 2026-05-07 04:48 | -26.11292 | 28.24270 | 5527 ft | 26 kts | 15° |
| 2026-05-07 04:48 | -26.11115 | 28.24325 | 5519 ft | 27 kts | 15° |
| 2026-05-07 04:49 | -26.10936 | 28.24379 | 5517 ft | 26 kts | 11° |
| 2026-05-07 04:49 | -26.10788 | 28.24422 | 5513 ft | 14 kts | 38° |
| 2026-05-07 04:49 | -26.10789 | 28.24513 | 5512 ft | 12 kts | 104° |
| 2026-05-07 04:49 | -26.10808 | 28.24598 | 5512 ft | 10 kts | 108° |
| 2026-05-07 04:50 | -26.10844 | 28.24611 | 5511 ft | 7 kts | 192° |
| 2026-05-07 04:50 | -26.10999 | 28.24564 | 5516 ft | 46 kts | 195° |
| 2026-05-07 04:50 | -26.11457 | 28.24421 | 5530 ft | 92 kts | 195° |
| 2026-05-07 04:50 | -26.12210 | 28.24188 | 5537 ft | 132 kts | 195° |
| 2026-05-07 04:51 | -26.13211 | 28.23877 | 5559 ft | 165 kts | 196° |
| 2026-05-07 04:51 | -26.14342 | 28.23547 | 6005 ft | 168 kts | 196° |
| 2026-05-07 04:51 | -26.15468 | 28.23237 | 6683 ft | 167 kts | 196° |
| 2026-05-07 04:51 | -26.16646 | 28.22933 | 7034 ft | 181 kts | 197° |
| 2026-05-07 04:52 | -26.17915 | 28.22589 | 7339 ft | 195 kts | 198° |
| 2026-05-07 04:52 | -26.19315 | 28.22197 | 7486 ft | 220 kts | 198° |
| 2026-05-07 04:52 | -26.20865 | 28.21760 | 7770 ft | 238 kts | 198° |
| 2026-05-07 04:52 | -26.22512 | 28.21295 | 8237 ft | 248 kts | 198° |
| 2026-05-07 04:53 | -26.24138 | 28.20603 | 8823 ft | 251 kts | 212° |
| 2026-05-07 04:53 | -26.25494 | 28.19396 | 9445 ft | 252 kts | 231° |
| 2026-05-07 04:53 | -26.26332 | 28.17682 | 10058 ft | 256 kts | 253° |
| 2026-05-07 04:53 | -26.26441 | 28.15670 | 10477 ft | 272 kts | 276° |
| 2026-05-07 04:54 | -26.25656 | 28.13665 | 10690 ft | 299 kts | 303° |
| 2026-05-07 04:54 | -26.23944 | 28.12187 | 10915 ft | 329 kts | 330° |
| 2026-05-07 04:54 | -26.21652 | 28.11528 | 11137 ft | 356 kts | 352° |
| 2026-05-07 04:54 | -26.19126 | 28.11790 | 11555 ft | 370 kts | 4° |
| 2026-05-07 04:55 | -26.16571 | 28.12211 | 12120 ft | 372 kts | 2° |
| 2026-05-07 04:55 | -26.13998 | 28.12554 | 12720 ft | 373 kts | 0° |
| 2026-05-07 04:55 | -26.11416 | 28.12818 | 13399 ft | 372 kts | 359° |
| 2026-05-07 04:55 | -26.08841 | 28.13002 | 14035 ft | 371 kts | 357° |
| 2026-05-07 04:56 | -26.06256 | 28.13105 | 14560 ft | 373 kts | 355° |
| 2026-05-07 04:56 | -26.03653 | 28.13120 | 15054 ft | 375 kts | 353° |
| 2026-05-07 04:56 | -26.01038 | 28.13046 | 15566 ft | 377 kts | 351° |
| 2026-05-07 04:56 | -25.98414 | 28.12877 | 16092 ft | 378 kts | 349° |
| 2026-05-07 04:57 | -25.95787 | 28.12607 | 16613 ft | 380 kts | 347° |
| 2026-05-07 04:57 | -25.93162 | 28.12235 | 17112 ft | 381 kts | 345° |
| 2026-05-07 04:57 | -25.90546 | 28.11755 | 17636 ft | 382 kts | 342° |
| 2026-05-07 04:57 | -25.87944 | 28.11161 | 18142 ft | 382 kts | 340° |
| 2026-05-07 04:58 | -25.85363 | 28.10452 | 18613 ft | 382 kts | 337° |
| 2026-05-07 04:58 | -25.82810 | 28.09622 | 19056 ft | 382 kts | 335° |
| 2026-05-07 04:58 | -25.80296 | 28.08665 | 19512 ft | 382 kts | 332° |
| 2026-05-07 04:58 | -25.77827 | 28.07579 | 19953 ft | 381 kts | 330° |
| 2026-05-07 04:59 | -25.75410 | 28.06357 | 20429 ft | 381 kts | 327° |
| 2026-05-07 04:59 | -25.73062 | 28.04996 | 20828 ft | 380 kts | 324° |
| 2026-05-07 04:59 | -25.70796 | 28.03495 | 21286 ft | 379 kts | 321° |
| 2026-05-07 04:59 | -25.68623 | 28.01840 | 21743 ft | 377 kts | 317° |
| 2026-05-07 05:00 | -25.66587 | 28.00026 | 22210 ft | 375 kts | 313° |
| 2026-05-07 05:00 | -25.64677 | 27.98059 | 22642 ft | 374 kts | 309° |
| 2026-05-07 05:00 | -25.62911 | 27.95939 | 23064 ft | 374 kts | 306° |
| 2026-05-07 05:00 | -25.61135 | 27.93808 | 23487 ft | 379 kts | 312° |
| 2026-05-07 05:01 | -25.59066 | 27.91964 | 23880 ft | 386 kts | 318° |
| 2026-05-07 05:01 | -25.56852 | 27.90256 | 24218 ft | 388 kts | 318° |
| 2026-05-07 05:01 | -25.54702 | 27.88469 | 24570 ft | 386 kts | 315° |
| 2026-05-07 05:01 | -25.52645 | 27.86559 | 24903 ft | 386 kts | 313° |
| 2026-05-07 05:02 | -25.50611 | 27.84614 | 25237 ft | 387 kts | 313° |
| 2026-05-07 05:02 | -25.48556 | 27.82678 | 25564 ft | 389 kts | 314° |
| 2026-05-07 05:02 | -25.46474 | 27.80768 | 25897 ft | 390 kts | 314° |
| 2026-05-07 05:02 | -25.44358 | 27.78875 | 26212 ft | 392 kts | 315° |
| 2026-05-07 05:03 | -25.42221 | 27.76995 | 26531 ft | 393 kts | 315° |
| 2026-05-07 05:03 | -25.40063 | 27.75115 | 26824 ft | 395 kts | 315° |
| 2026-05-07 05:03 | -25.37903 | 27.73239 | 27123 ft | 396 kts | 315° |
| 2026-05-07 05:03 | -25.35733 | 27.71358 | 27420 ft | 397 kts | 315° |
| 2026-05-07 05:04 | -25.33558 | 27.69471 | 27716 ft | 398 kts | 315° |
| 2026-05-07 05:04 | -25.31377 | 27.67578 | 28003 ft | 399 kts | 315° |
| 2026-05-07 05:04 | -25.29192 | 27.65679 | 28274 ft | 400 kts | 315° |
| 2026-05-07 05:04 | -25.26996 | 27.63772 | 28577 ft | 400 kts | 315° |
| 2026-05-07 05:05 | -25.24804 | 27.61870 | 28843 ft | 401 kts | 315° |
| 2026-05-07 05:05 | -25.22635 | 27.59987 | 29077 ft | 403 kts | 315° |
| 2026-05-07 05:05 | -25.20399 | 27.58046 | 29333 ft | 404 kts | 315° |
| 2026-05-07 05:05 | -25.18208 | 27.56145 | 29573 ft | 406 kts | 315° |
| 2026-05-07 05:06 | -25.15985 | 27.54216 | 29809 ft | 407 kts | 315° |
| 2026-05-07 05:06 | -25.13762 | 27.52290 | 30077 ft | 408 kts | 315° |
| 2026-05-07 05:06 | -25.11521 | 27.50349 | 30281 ft | 409 kts | 315° |
| 2026-05-07 05:06 | -25.09276 | 27.48406 | 30488 ft | 410 kts | 315° |
| 2026-05-07 05:07 | -25.07030 | 27.46464 | 30665 ft | 412 kts | 315° |
| 2026-05-07 05:07 | -25.04773 | 27.44512 | 30830 ft | 412 kts | 315° |
| 2026-05-07 05:07 | -25.03246 | 27.43194 | 30988 ft | 412 kts | 315° |
| 2026-05-07 05:07 | -25.01040 | 27.41196 | 31225 ft | 409 kts | 312° |
| 2026-05-07 05:08 | -24.98921 | 27.39119 | 31530 ft | 406 kts | 311° |
| 2026-05-07 05:08 | -24.96844 | 27.37016 | 31803 ft | 405 kts | 311° |
| 2026-05-07 05:08 | -24.94778 | 27.34914 | 32063 ft | 404 kts | 311° |
| 2026-05-07 05:08 | -24.92735 | 27.32852 | 32316 ft | 403 kts | 311° |
| 2026-05-07 05:09 | -24.90634 | 27.30751 | 32563 ft | 402 kts | 311° |
| 2026-05-07 05:09 | -24.88584 | 27.28720 | 32820 ft | 401 kts | 311° |
| 2026-05-07 05:09 | -24.86478 | 27.26645 | 33082 ft | 400 kts | 312° |
| 2026-05-07 05:09 | -24.84430 | 27.24634 | 33288 ft | 400 kts | 312° |
| 2026-05-07 05:10 | -24.82356 | 27.22601 | 33521 ft | 399 kts | 312° |
| 2026-05-07 05:10 | -24.80285 | 27.20570 | 33644 ft | 399 kts | 312° |
| 2026-05-07 05:10 | -24.78207 | 27.18531 | 33771 ft | 401 kts | 312° |
| 2026-05-07 05:10 | -24.76130 | 27.16495 | 34014 ft | 400 kts | 312° |
| 2026-05-07 05:11 | -24.74053 | 27.14463 | 34243 ft | 398 kts | 312° |
| 2026-05-07 05:11 | -24.71987 | 27.12440 | 34415 ft | 398 kts | 312° |
| 2026-05-07 05:11 | -24.69925 | 27.10419 | 34550 ft | 398 kts | 312° |
| 2026-05-07 05:11 | -24.67852 | 27.08390 | 34676 ft | 399 kts | 312° |
| 2026-05-07 05:12 | -24.65780 | 27.06363 | 34804 ft | 399 kts | 312° |
| 2026-05-07 05:12 | -24.63701 | 27.04330 | 34931 ft | 399 kts | 312° |
| 2026-05-07 05:12 | -24.61622 | 27.02298 | 35052 ft | 399 kts | 312° |
| 2026-05-07 05:12 | -24.59543 | 27.00268 | 35180 ft | 400 kts | 312° |
| 2026-05-07 05:13 | -24.55376 | 26.96200 | 35298 ft | 403 kts | 312° |
| 2026-05-07 05:13 | -24.53282 | 26.94157 | 35417 ft | 403 kts | 312° |
| 2026-05-07 05:13 | -24.51187 | 26.92115 | 35558 ft | 403 kts | 312° |
| 2026-05-07 05:14 | -24.49092 | 26.90074 | 35676 ft | 403 kts | 312° |
| 2026-05-07 05:14 | -24.46995 | 26.88034 | 35783 ft | 403 kts | 312° |
| 2026-05-07 05:14 | -24.44899 | 26.85994 | 35921 ft | 403 kts | 312° |
| 2026-05-07 05:14 | -24.42806 | 26.83958 | 36042 ft | 403 kts | 312° |
| 2026-05-07 05:15 | -24.38602 | 26.79868 | 36150 ft | 405 kts | 312° |
| 2026-05-07 05:15 | -24.34386 | 26.75773 | 36150 ft | 404 kts | 312° |
| 2026-05-07 05:16 | -24.30028 | 26.71846 | 36149 ft | 409 kts | 316° |
| 2026-05-07 05:16 | -24.25459 | 26.68105 | 36149 ft | 411 kts | 316° |
| 2026-05-07 05:17 | -24.20855 | 26.64395 | 36148 ft | 411 kts | 316° |
| 2026-05-07 05:17 | -24.16248 | 26.60685 | 36148 ft | 411 kts | 316° |
| 2026-05-07 05:18 | -24.11655 | 26.56979 | 36150 ft | 411 kts | 316° |
| 2026-05-07 05:18 | -24.07054 | 26.53266 | 36159 ft | 411 kts | 316° |
| 2026-05-07 05:19 | -24.02437 | 26.49541 | 36135 ft | 414 kts | 317° |
| 2026-05-07 05:19 | -23.97798 | 26.45805 | 36153 ft | 414 kts | 317° |
| 2026-05-07 05:20 | -23.93157 | 26.42072 | 36137 ft | 414 kts | 317° |
| 2026-05-07 05:20 | -23.88522 | 26.38347 | 36157 ft | 414 kts | 317° |
| 2026-05-07 05:21 | -23.81556 | 26.32764 | 36144 ft | 415 kts | 317° |
| 2026-05-07 05:22 | -23.76882 | 26.29031 | 36148 ft | 417 kts | 317° |
| 2026-05-07 05:22 | -23.72201 | 26.25298 | 36158 ft | 417 kts | 317° |
| 2026-05-07 05:23 | -23.67397 | 26.21716 | 36155 ft | 420 kts | 321° |
| 2026-05-07 05:23 | -23.62416 | 26.18359 | 36158 ft | 421 kts | 321° |
| 2026-05-07 05:24 | -23.57445 | 26.14995 | 36143 ft | 421 kts | 321° |
| 2026-05-07 05:24 | -23.52520 | 26.11522 | 36162 ft | 421 kts | 318° |
| 2026-05-07 05:25 | -23.47878 | 26.07666 | 36162 ft | 419 kts | 315° |
| 2026-05-07 05:25 | -23.43297 | 26.03740 | 36169 ft | 419 kts | 316° |
| 2026-05-07 05:26 | -23.38672 | 25.99872 | 36168 ft | 419 kts | 316° |
| 2026-05-07 05:26 | -23.34011 | 25.96037 | 36148 ft | 420 kts | 317° |
| 2026-05-07 05:27 | -23.29335 | 25.92205 | 36173 ft | 422 kts | 316° |
| 2026-05-07 05:27 | -23.24647 | 25.88365 | 36174 ft | 422 kts | 316° |
| 2026-05-07 05:28 | -23.19956 | 25.84525 | 36174 ft | 422 kts | 316° |
| 2026-05-07 05:28 | -23.15263 | 25.80684 | 36175 ft | 422 kts | 316° |
| 2026-05-07 05:29 | -23.10573 | 25.76849 | 36180 ft | 422 kts | 317° |
| 2026-05-07 05:29 | -23.05915 | 25.73044 | 36183 ft | 422 kts | 317° |
| 2026-05-07 05:30 | -23.01191 | 25.69189 | 36181 ft | 422 kts | 317° |
| 2026-05-07 05:30 | -22.96500 | 25.65363 | 36186 ft | 422 kts | 317° |
| 2026-05-07 05:31 | -22.91831 | 25.61572 | 36184 ft | 422 kts | 317° |
| 2026-05-07 05:31 | -22.87048 | 25.57850 | 36183 ft | 423 kts | 318° |
| 2026-05-07 05:32 | -22.82243 | 25.54157 | 36175 ft | 423 kts | 318° |
| 2026-05-07 05:32 | -22.77439 | 25.50445 | 36195 ft | 425 kts | 318° |
| 2026-05-07 05:33 | -22.72632 | 25.46717 | 36176 ft | 425 kts | 318° |
| 2026-05-07 05:33 | -22.67823 | 25.42987 | 36195 ft | 425 kts | 318° |
| 2026-05-07 05:34 | -22.63017 | 25.39264 | 36194 ft | 425 kts | 318° |
| 2026-05-07 05:34 | -22.58212 | 25.35544 | 36199 ft | 425 kts | 318° |
| 2026-05-07 05:35 | -22.53395 | 25.31818 | 36198 ft | 426 kts | 318° |
| 2026-05-07 05:35 | -22.48579 | 25.28097 | 36195 ft | 426 kts | 318° |
| 2026-05-07 05:36 | -22.43746 | 25.24366 | 36200 ft | 426 kts | 318° |
| 2026-05-07 05:36 | -22.38953 | 25.20670 | 36200 ft | 426 kts | 318° |
| 2026-05-07 05:37 | -22.34093 | 25.16924 | 36199 ft | 426 kts | 318° |
| 2026-05-07 05:37 | -22.29299 | 25.13232 | 36197 ft | 426 kts | 319° |
| 2026-05-07 05:38 | -22.24468 | 25.09515 | 36203 ft | 427 kts | 319° |
| 2026-05-07 05:38 | -22.19632 | 25.05799 | 36205 ft | 427 kts | 319° |
| 2026-05-07 05:39 | -22.14796 | 25.02086 | 36205 ft | 427 kts | 319° |
| 2026-05-07 05:39 | -22.09955 | 24.98371 | 36211 ft | 427 kts | 318° |
| 2026-05-07 05:40 | -22.05120 | 24.94664 | 36208 ft | 427 kts | 318° |
| 2026-05-07 05:40 | -22.00273 | 24.90950 | 36208 ft | 427 kts | 319° |
| 2026-05-07 05:41 | -21.95416 | 24.87233 | 36202 ft | 428 kts | 319° |
| 2026-05-07 05:41 | -21.90566 | 24.83524 | 36205 ft | 428 kts | 319° |
| 2026-05-07 05:42 | -21.85712 | 24.79806 | 36205 ft | 428 kts | 319° |
| 2026-05-07 05:42 | -21.80869 | 24.76088 | 36208 ft | 428 kts | 319° |
| 2026-05-07 05:43 | -21.76021 | 24.72372 | 36194 ft | 428 kts | 319° |
| 2026-05-07 05:43 | -21.71163 | 24.68653 | 36203 ft | 428 kts | 319° |
| 2026-05-07 05:44 | -21.66337 | 24.64963 | 36200 ft | 428 kts | 319° |
| 2026-05-07 05:44 | -21.61475 | 24.61249 | 36206 ft | 428 kts | 319° |
| 2026-05-07 05:45 | -21.56621 | 24.57543 | 36200 ft | 428 kts | 319° |
| 2026-05-07 05:45 | -21.51746 | 24.53824 | 36200 ft | 429 kts | 319° |
| 2026-05-07 05:46 | -21.46884 | 24.50120 | 36202 ft | 428 kts | 319° |
| 2026-05-07 05:46 | -21.42019 | 24.46415 | 36201 ft | 428 kts | 319° |
| 2026-05-07 05:47 | -21.37158 | 24.42717 | 36202 ft | 428 kts | 319° |
| 2026-05-07 05:47 | -21.32325 | 24.39042 | 36204 ft | 428 kts | 319° |
| 2026-05-07 05:48 | -21.27460 | 24.35346 | 36204 ft | 429 kts | 319° |
| 2026-05-07 05:48 | -21.22588 | 24.31649 | 36196 ft | 429 kts | 319° |
| 2026-05-07 05:49 | -21.17716 | 24.27955 | 36198 ft | 429 kts | 319° |
| 2026-05-07 05:49 | -21.13665 | 24.24886 | 36207 ft | 429 kts | 319° |
| 2026-05-07 05:50 | -21.08795 | 24.21198 | 36202 ft | 429 kts | 319° |
| 2026-05-07 05:50 | -21.03918 | 24.17508 | 36203 ft | 429 kts | 319° |
| 2026-05-07 05:51 | -20.99047 | 24.13826 | 36201 ft | 429 kts | 319° |
| 2026-05-07 05:51 | -20.94177 | 24.10148 | 36192 ft | 429 kts | 319° |
| 2026-05-07 05:52 | -20.89295 | 24.06462 | 36211 ft | 429 kts | 319° |
| 2026-05-07 05:52 | -20.84411 | 24.02780 | 36197 ft | 430 kts | 319° |
| 2026-05-07 05:53 | -20.79527 | 23.99100 | 36191 ft | 430 kts | 319° |
| 2026-05-07 05:53 | -20.74641 | 23.95421 | 36202 ft | 430 kts | 319° |
| 2026-05-07 05:54 | -20.69746 | 23.91739 | 36165 ft | 430 kts | 319° |
| 2026-05-07 05:54 | -20.64856 | 23.88063 | 36195 ft | 430 kts | 319° |
| 2026-05-07 05:55 | -20.59961 | 23.84387 | 36198 ft | 430 kts | 319° |
| 2026-05-07 05:55 | -20.55053 | 23.80703 | 36193 ft | 430 kts | 319° |
| 2026-05-07 05:56 | -20.50176 | 23.77053 | 36190 ft | 427 kts | 319° |
| 2026-05-07 05:56 | -20.45323 | 23.73417 | 36195 ft | 426 kts | 319° |
| 2026-05-07 05:57 | -20.40472 | 23.69779 | 36193 ft | 427 kts | 319° |
| 2026-05-07 05:57 | -20.35614 | 23.66142 | 36190 ft | 427 kts | 319° |
| 2026-05-07 05:58 | -20.30757 | 23.62509 | 36190 ft | 427 kts | 319° |
| 2026-05-07 05:58 | -20.25896 | 23.58878 | 36190 ft | 427 kts | 319° |
| 2026-05-07 05:59 | -20.21029 | 23.55245 | 36193 ft | 427 kts | 319° |
| 2026-05-07 05:59 | -20.16168 | 23.51619 | 36193 ft | 427 kts | 319° |
| 2026-05-07 06:00 | -20.11330 | 23.48013 | 36188 ft | 427 kts | 319° |
| 2026-05-07 06:00 | -20.06462 | 23.44387 | 36197 ft | 427 kts | 319° |
| 2026-05-07 06:01 | -20.01591 | 23.40762 | 36186 ft | 427 kts | 319° |
| 2026-05-07 06:01 | -19.96303 | 23.37649 | 36183 ft | 437 kts | 328° |
| 2026-05-07 06:02 | -19.90750 | 23.35094 | 36185 ft | 438 kts | 330° |
| 2026-05-07 06:02 | -19.85112 | 23.32598 | 36166 ft | 439 kts | 330° |
| 2026-05-07 06:03 | -19.79478 | 23.30100 | 36188 ft | 439 kts | 330° |
| 2026-05-07 06:03 | -19.73815 | 23.27575 | 36190 ft | 439 kts | 330° |
| 2026-05-07 06:04 | -19.68227 | 23.25078 | 36189 ft | 439 kts | 330° |
| 2026-05-07 06:04 | -19.62566 | 23.22550 | 36189 ft | 439 kts | 330° |
| 2026-05-07 06:05 | -19.56977 | 23.20057 | 36190 ft | 439 kts | 330° |
| 2026-05-07 06:05 | -19.51349 | 23.17549 | 36186 ft | 438 kts | 329° |
| 2026-05-07 06:06 | -19.45727 | 23.15046 | 36199 ft | 438 kts | 329° |
| 2026-05-07 06:06 | -19.40110 | 23.12546 | 36176 ft | 438 kts | 329° |
| 2026-05-07 06:07 | -19.34489 | 23.10046 | 36184 ft | 438 kts | 329° |
| 2026-05-07 06:07 | -19.28861 | 23.07545 | 36182 ft | 438 kts | 329° |
| 2026-05-07 06:08 | -19.23241 | 23.05050 | 36182 ft | 438 kts | 329° |
| 2026-05-07 06:08 | -19.17615 | 23.02554 | 36183 ft | 438 kts | 329° |
| 2026-05-07 06:09 | -19.11994 | 23.00062 | 36184 ft | 438 kts | 329° |
| 2026-05-07 06:09 | -19.06367 | 22.97569 | 36184 ft | 438 kts | 329° |
| 2026-05-07 06:10 | -19.00738 | 22.95090 | 36184 ft | 438 kts | 330° |
| 2026-05-07 06:10 | -18.95086 | 22.92664 | 36171 ft | 438 kts | 330° |
| 2026-05-07 06:11 | -18.89432 | 22.90244 | 36182 ft | 438 kts | 329° |
| 2026-05-07 06:11 | -18.83819 | 22.87834 | 36177 ft | 438 kts | 329° |
| 2026-05-07 06:12 | -18.78182 | 22.85409 | 36180 ft | 438 kts | 329° |
| 2026-05-07 06:12 | -18.72533 | 22.82980 | 36174 ft | 438 kts | 329° |
| 2026-05-07 06:13 | -18.66888 | 22.80555 | 36147 ft | 438 kts | 329° |
| 2026-05-07 06:13 | -18.61261 | 22.78092 | 36181 ft | 437 kts | 328° |
| 2026-05-07 06:14 | -18.55676 | 22.75582 | 36170 ft | 437 kts | 328° |
| 2026-05-07 06:14 | -18.50086 | 22.73074 | 36170 ft | 437 kts | 328° |
| 2026-05-07 06:15 | -18.44480 | 22.70576 | 36167 ft | 437 kts | 328° |
| 2026-05-07 06:15 | -18.38878 | 22.68087 | 36167 ft | 437 kts | 328° |
| 2026-05-07 06:16 | -18.33269 | 22.65596 | 36162 ft | 437 kts | 328° |
| 2026-05-07 06:16 | -18.27669 | 22.63111 | 36162 ft | 437 kts | 328° |
| 2026-05-07 06:17 | -18.22067 | 22.60626 | 36159 ft | 437 kts | 328° |
| 2026-05-07 06:17 | -18.16464 | 22.58143 | 36160 ft | 437 kts | 328° |
| 2026-05-07 06:18 | -18.10862 | 22.55662 | 36158 ft | 437 kts | 328° |
| 2026-05-07 06:18 | -18.05295 | 22.53198 | 36147 ft | 437 kts | 328° |
| 2026-05-07 06:19 | -17.99689 | 22.50718 | 36156 ft | 437 kts | 328° |
| 2026-05-07 06:19 | -17.94080 | 22.48239 | 36158 ft | 437 kts | 328° |
| 2026-05-07 06:20 | -17.88506 | 22.45709 | 36154 ft | 435 kts | 327° |
| 2026-05-07 06:20 | -17.82997 | 22.43082 | 36152 ft | 435 kts | 327° |
| 2026-05-07 06:21 | -17.77406 | 22.40577 | 36153 ft | 437 kts | 329° |
| 2026-05-07 06:21 | -17.71757 | 22.38181 | 36151 ft | 439 kts | 329° |
| 2026-05-07 06:22 | -17.66098 | 22.35775 | 36151 ft | 439 kts | 329° |
| 2026-05-07 06:22 | -17.57625 | 22.32138 | 36148 ft | 439 kts | 329° |
| 2026-05-07 06:23 | -17.51979 | 22.29709 | 36149 ft | 439 kts | 329° |
| 2026-05-07 06:23 | -17.46333 | 22.27282 | 36148 ft | 439 kts | 329° |
| 2026-05-07 06:24 | -17.40682 | 22.24855 | 36148 ft | 439 kts | 329° |
| 2026-05-07 06:24 | -17.35040 | 22.22433 | 36143 ft | 439 kts | 329° |
| 2026-05-07 06:25 | -17.29387 | 22.20009 | 36146 ft | 439 kts | 329° |
| 2026-05-07 06:25 | -17.23737 | 22.17588 | 36146 ft | 439 kts | 329° |
| 2026-05-07 06:26 | -17.18087 | 22.15169 | 36146 ft | 439 kts | 329° |
| 2026-05-07 06:26 | -17.12436 | 22.12749 | 36149 ft | 439 kts | 329° |
| 2026-05-07 06:27 | -17.06775 | 22.10327 | 36144 ft | 440 kts | 329° |
| 2026-05-07 06:27 | -17.01106 | 22.07904 | 36143 ft | 440 kts | 329° |
| 2026-05-07 06:28 | -16.95444 | 22.05486 | 36140 ft | 440 kts | 329° |
| 2026-05-07 06:28 | -16.89774 | 22.03066 | 36137 ft | 440 kts | 329° |
| 2026-05-07 06:29 | -16.84112 | 22.00650 | 36123 ft | 440 kts | 329° |
| 2026-05-07 06:29 | -16.78438 | 21.98230 | 36138 ft | 441 kts | 329° |
| 2026-05-07 06:30 | -16.72749 | 21.95806 | 36133 ft | 441 kts | 329° |
| 2026-05-07 06:30 | -16.67102 | 21.93403 | 36136 ft | 441 kts | 329° |
| 2026-05-07 06:31 | -16.62342 | 21.91378 | 36124 ft | 441 kts | 329° |
| 2026-05-07 06:31 | -16.56658 | 21.88961 | 36141 ft | 441 kts | 329° |
| 2026-05-07 06:32 | -16.50971 | 21.86543 | 36133 ft | 442 kts | 329° |
| 2026-05-07 06:32 | -16.45265 | 21.84118 | 36133 ft | 443 kts | 329° |
| 2026-05-07 06:33 | -16.39545 | 21.81691 | 36134 ft | 443 kts | 329° |
| 2026-05-07 06:33 | -16.33861 | 21.79281 | 36141 ft | 443 kts | 329° |
| 2026-05-07 06:34 | -16.28151 | 21.76862 | 36133 ft | 442 kts | 329° |
| 2026-05-07 06:34 | -16.22443 | 21.74444 | 36112 ft | 442 kts | 329° |
| 2026-05-07 06:35 | -16.16728 | 21.72021 | 36133 ft | 444 kts | 329° |
| 2026-05-07 06:35 | -16.10999 | 21.69596 | 36132 ft | 445 kts | 329° |
| 2026-05-07 06:36 | -16.05251 | 21.67167 | 36133 ft | 445 kts | 329° |
| 2026-05-07 06:36 | -15.99512 | 21.64743 | 36127 ft | 445 kts | 329° |
| 2026-05-07 06:37 | -15.93775 | 21.62320 | 36126 ft | 445 kts | 329° |
| 2026-05-07 06:37 | -15.88026 | 21.59893 | 36124 ft | 446 kts | 330° |
| 2026-05-07 06:38 | -15.82264 | 21.57461 | 36124 ft | 448 kts | 330° |
| 2026-05-07 06:38 | -15.76484 | 21.55025 | 36125 ft | 448 kts | 330° |
| 2026-05-07 06:39 | -15.70715 | 21.52596 | 36124 ft | 448 kts | 330° |
| 2026-05-07 06:39 | -15.64936 | 21.50163 | 36122 ft | 448 kts | 330° |
| 2026-05-07 06:40 | -15.59168 | 21.47736 | 36108 ft | 448 kts | 330° |
| 2026-05-07 06:40 | -15.53377 | 21.45299 | 36118 ft | 450 kts | 330° |
| 2026-05-07 06:41 | -15.47567 | 21.42857 | 36117 ft | 451 kts | 330° |
| 2026-05-07 06:41 | -15.41752 | 21.40416 | 36121 ft | 451 kts | 330° |
| 2026-05-07 06:42 | -15.35933 | 21.37974 | 36115 ft | 451 kts | 330° |
| 2026-05-07 06:42 | -15.30111 | 21.35532 | 36115 ft | 451 kts | 330° |
| 2026-05-07 06:43 | -15.24286 | 21.33089 | 36115 ft | 452 kts | 331° |
| 2026-05-07 06:43 | -15.18440 | 21.30638 | 36116 ft | 454 kts | 331° |
| 2026-05-07 06:44 | -15.12584 | 21.28187 | 36113 ft | 454 kts | 331° |
| 2026-05-07 06:44 | -15.06726 | 21.25736 | 36112 ft | 454 kts | 331° |
| 2026-05-07 06:45 | -15.00866 | 21.23286 | 36098 ft | 454 kts | 331° |
| 2026-05-07 06:45 | -14.95042 | 21.20851 | 36104 ft | 454 kts | 331° |
| 2026-05-07 06:46 | -14.89166 | 21.18395 | 36109 ft | 456 kts | 331° |
| 2026-05-07 06:46 | -14.83283 | 21.15939 | 36108 ft | 457 kts | 331° |
| 2026-05-07 06:47 | -14.77388 | 21.13481 | 36112 ft | 457 kts | 331° |
| 2026-05-07 06:47 | -14.71504 | 21.11029 | 36102 ft | 455 kts | 331° |
| 2026-05-07 06:48 | -14.65625 | 21.08578 | 36100 ft | 455 kts | 331° |
| 2026-05-07 06:48 | -14.59746 | 21.06127 | 36097 ft | 457 kts | 332° |
| 2026-05-07 06:49 | -14.53847 | 21.03670 | 36101 ft | 458 kts | 332° |
| 2026-05-07 06:49 | -14.47938 | 21.01213 | 36096 ft | 458 kts | 332° |
| 2026-05-07 06:50 | -14.42032 | 20.98758 | 36100 ft | 458 kts | 332° |
| 2026-05-07 06:50 | -14.36123 | 20.96303 | 36098 ft | 458 kts | 332° |
| 2026-05-07 06:51 | -14.30244 | 20.93861 | 36097 ft | 458 kts | 332° |
| 2026-05-07 06:51 | -14.24337 | 20.91409 | 36092 ft | 458 kts | 332° |
| 2026-05-07 06:52 | -14.18425 | 20.88957 | 36094 ft | 458 kts | 332° |
| 2026-05-07 06:52 | -14.12522 | 20.86509 | 36094 ft | 458 kts | 332° |
| 2026-05-07 06:53 | -14.06607 | 20.84058 | 36091 ft | 458 kts | 332° |
| 2026-05-07 06:53 | -14.00699 | 20.81611 | 36096 ft | 457 kts | 332° |
| 2026-05-07 06:54 | -13.94787 | 20.79163 | 36089 ft | 459 kts | 332° |
| 2026-05-07 06:54 | -13.88849 | 20.76706 | 36089 ft | 459 kts | 332° |
| 2026-05-07 06:55 | -13.82917 | 20.74254 | 36083 ft | 459 kts | 332° |
| 2026-05-07 06:55 | -13.76988 | 20.71805 | 36083 ft | 459 kts | 332° |
| 2026-05-07 06:56 | -13.71061 | 20.69357 | 36084 ft | 459 kts | 332° |
| 2026-05-07 06:56 | -13.65143 | 20.66913 | 36082 ft | 459 kts | 332° |
| 2026-05-07 06:57 | -13.59227 | 20.64472 | 36078 ft | 461 kts | 333° |
| 2026-05-07 06:57 | -13.53238 | 20.62003 | 36077 ft | 461 kts | 333° |
| 2026-05-07 06:58 | -13.47316 | 20.59562 | 36076 ft | 461 kts | 333° |
| 2026-05-07 06:58 | -13.41358 | 20.57109 | 36075 ft | 461 kts | 333° |
| 2026-05-07 06:59 | -13.35405 | 20.54658 | 36075 ft | 461 kts | 333° |
| 2026-05-07 06:59 | -13.29436 | 20.52201 | 36077 ft | 462 kts | 333° |
| 2026-05-07 07:00 | -13.23462 | 20.49744 | 36077 ft | 463 kts | 333° |
| 2026-05-07 07:00 | -13.17474 | 20.47283 | 36074 ft | 463 kts | 333° |
| 2026-05-07 07:01 | -13.11501 | 20.44831 | 36074 ft | 462 kts | 333° |
| 2026-05-07 07:01 | -13.05533 | 20.42381 | 36069 ft | 461 kts | 333° |
| 2026-05-07 07:02 | -12.99574 | 20.39935 | 36067 ft | 461 kts | 334° |
| 2026-05-07 07:02 | -12.93608 | 20.37487 | 36067 ft | 463 kts | 334° |
| 2026-05-07 07:03 | -12.87620 | 20.35032 | 36069 ft | 463 kts | 334° |
| 2026-05-07 07:03 | -12.81637 | 20.32581 | 36064 ft | 463 kts | 334° |
| 2026-05-07 07:04 | -12.75651 | 20.30130 | 36061 ft | 463 kts | 334° |
| 2026-05-07 07:04 | -12.69667 | 20.27681 | 36061 ft | 463 kts | 334° |
| 2026-05-07 07:05 | -12.63674 | 20.25228 | 36062 ft | 464 kts | 334° |
| 2026-05-07 07:05 | -12.57708 | 20.22788 | 36061 ft | 465 kts | 334° |
| 2026-05-07 07:06 | -12.51661 | 20.20317 | 36061 ft | 465 kts | 334° |
| 2026-05-07 07:06 | -12.45652 | 20.17863 | 36061 ft | 465 kts | 334° |
| 2026-05-07 07:07 | -12.39640 | 20.15409 | 36065 ft | 465 kts | 335° |
| 2026-05-07 07:07 | -12.33672 | 20.12972 | 36063 ft | 465 kts | 335° |
| 2026-05-07 07:08 | -12.27663 | 20.10521 | 36061 ft | 465 kts | 335° |
| 2026-05-07 07:08 | -12.21640 | 20.08067 | 36061 ft | 465 kts | 335° |
| 2026-05-07 07:09 | -12.15621 | 20.05614 | 36058 ft | 465 kts | 335° |
| 2026-05-07 07:09 | -12.09605 | 20.03164 | 36059 ft | 465 kts | 335° |
| 2026-05-07 07:10 | -12.03594 | 20.00716 | 36061 ft | 465 kts | 335° |
| 2026-05-07 07:10 | -11.97568 | 19.98264 | 36061 ft | 466 kts | 335° |
| 2026-05-07 07:11 | -11.91534 | 19.95810 | 36061 ft | 467 kts | 335° |
| 2026-05-07 07:11 | -11.86510 | 19.93768 | 36058 ft | 467 kts | 335° |
| 2026-05-07 07:12 | -11.80463 | 19.91311 | 36059 ft | 467 kts | 335° |
| 2026-05-07 07:12 | -11.74343 | 19.89073 | 36055 ft | 469 kts | 340° |
| 2026-05-07 07:13 | -11.68093 | 19.87143 | 36051 ft | 469 kts | 341° |
| 2026-05-07 07:13 | -11.61828 | 19.85259 | 36051 ft | 470 kts | 341° |
| 2026-05-07 07:14 | -11.55556 | 19.83375 | 36050 ft | 470 kts | 341° |
| 2026-05-07 07:14 | -11.49286 | 19.81486 | 36050 ft | 470 kts | 341° |
| 2026-05-07 07:15 | -11.43014 | 19.79593 | 36052 ft | 470 kts | 341° |
| 2026-05-07 07:15 | -11.36751 | 19.77703 | 36050 ft | 469 kts | 341° |
| 2026-05-07 07:16 | -11.30497 | 19.75816 | 36051 ft | 469 kts | 341° |
| 2026-05-07 07:16 | -11.24240 | 19.73931 | 36050 ft | 469 kts | 341° |
| 2026-05-07 07:17 | -11.17979 | 19.72045 | 36048 ft | 469 kts | 341° |
| 2026-05-07 07:17 | -11.11723 | 19.70160 | 36049 ft | 469 kts | 341° |
| 2026-05-07 07:18 | -11.05462 | 19.68275 | 36047 ft | 469 kts | 341° |
| 2026-05-07 07:18 | -10.99205 | 19.66393 | 36048 ft | 469 kts | 341° |
| 2026-05-07 07:19 | -10.92950 | 19.64512 | 36047 ft | 469 kts | 341° |
| 2026-05-07 07:19 | -10.86686 | 19.62629 | 36048 ft | 469 kts | 341° |
| 2026-05-07 07:20 | -10.80430 | 19.60749 | 36052 ft | 469 kts | 341° |
| 2026-05-07 07:20 | -10.74172 | 19.58870 | 36050 ft | 469 kts | 341° |
| 2026-05-07 07:21 | -10.67916 | 19.56992 | 36050 ft | 469 kts | 342° |
| 2026-05-07 07:21 | -10.61662 | 19.55114 | 36045 ft | 468 kts | 342° |
| 2026-05-07 07:22 | -10.55405 | 19.53237 | 36045 ft | 468 kts | 342° |
| 2026-05-07 07:22 | -10.49194 | 19.51375 | 36039 ft | 468 kts | 342° |
| 2026-05-07 07:23 | -10.42937 | 19.49500 | 36041 ft | 468 kts | 342° |
| 2026-05-07 07:23 | -10.36649 | 19.47616 | 36034 ft | 468 kts | 342° |
| 2026-05-07 07:24 | -10.30433 | 19.45754 | 36034 ft | 469 kts | 342° |
| 2026-05-07 07:24 | -10.24166 | 19.43879 | 36029 ft | 470 kts | 342° |
| 2026-05-07 07:25 | -10.14749 | 19.41062 | 36028 ft | 470 kts | 342° |
| 2026-05-07 07:26 | -10.08476 | 19.39185 | 36019 ft | 470 kts | 342° |
| 2026-05-07 07:26 | -10.02198 | 19.37309 | 36018 ft | 470 kts | 342° |
| 2026-05-07 07:27 | -9.95930 | 19.35436 | 36013 ft | 470 kts | 342° |
| 2026-05-07 07:27 | -9.89637 | 19.33556 | 36019 ft | 471 kts | 342° |
| 2026-05-07 07:28 | -9.83342 | 19.31677 | 36007 ft | 471 kts | 342° |
| 2026-05-07 07:28 | -9.77050 | 19.29799 | 36014 ft | 471 kts | 342° |
| 2026-05-07 07:29 | -9.70757 | 19.27921 | 36008 ft | 471 kts | 342° |
| 2026-05-07 07:29 | -9.64458 | 19.26044 | 36011 ft | 471 kts | 342° |
| 2026-05-07 07:30 | -9.58165 | 19.24157 | 36012 ft | 472 kts | 343° |
| 2026-05-07 07:30 | -9.51877 | 19.22259 | 36006 ft | 472 kts | 343° |
| 2026-05-07 07:31 | -9.45578 | 19.20359 | 36010 ft | 472 kts | 343° |
| 2026-05-07 07:31 | -9.39329 | 19.18478 | 36010 ft | 472 kts | 343° |
| 2026-05-07 07:32 | -9.33036 | 19.16585 | 36006 ft | 472 kts | 343° |
| 2026-05-07 07:32 | -9.26703 | 19.14681 | 36009 ft | 472 kts | 343° |
| 2026-05-07 07:33 | -9.20449 | 19.12801 | 36002 ft | 472 kts | 343° |
| 2026-05-07 07:33 | -9.14149 | 19.10909 | 36007 ft | 472 kts | 343° |
| 2026-05-07 07:34 | -9.07862 | 19.09020 | 36006 ft | 471 kts | 343° |
| 2026-05-07 07:34 | -9.01538 | 19.07122 | 36008 ft | 471 kts | 343° |
| 2026-05-07 07:35 | -8.95261 | 19.05238 | 36007 ft | 471 kts | 343° |
| 2026-05-07 07:35 | -8.89009 | 19.03362 | 36015 ft | 472 kts | 343° |
| 2026-05-07 07:36 | -8.82713 | 19.01474 | 36009 ft | 472 kts | 343° |
| 2026-05-07 07:36 | -8.76411 | 18.99585 | 36011 ft | 472 kts | 343° |
| 2026-05-07 07:37 | -8.70114 | 18.97698 | 36006 ft | 472 kts | 343° |
| 2026-05-07 07:37 | -8.63820 | 18.95812 | 36006 ft | 472 kts | 343° |
| 2026-05-07 07:38 | -8.57523 | 18.93926 | 36013 ft | 472 kts | 344° |
| 2026-05-07 07:38 | -8.51212 | 18.92037 | 36008 ft | 472 kts | 344° |
| 2026-05-07 07:39 | -8.44900 | 18.90148 | 36011 ft | 472 kts | 343° |
| 2026-05-07 07:39 | -8.38598 | 18.88263 | 36011 ft | 472 kts | 343° |
| 2026-05-07 07:40 | -8.32294 | 18.86376 | 36010 ft | 472 kts | 343° |
| 2026-05-07 07:40 | -8.26003 | 18.84456 | 36006 ft | 472 kts | 343° |
| 2026-05-07 07:41 | -8.19712 | 18.82524 | 36008 ft | 472 kts | 344° |
| 2026-05-07 07:41 | -8.13416 | 18.80598 | 36012 ft | 472 kts | 344° |
| 2026-05-07 07:42 | -8.07124 | 18.78678 | 36004 ft | 472 kts | 344° |
| 2026-05-07 07:42 | -8.00834 | 18.76760 | 36008 ft | 472 kts | 344° |
| 2026-05-07 07:43 | -7.94547 | 18.74843 | 36003 ft | 472 kts | 344° |
| 2026-05-07 07:43 | -7.88267 | 18.72928 | 36005 ft | 472 kts | 344° |
| 2026-05-07 07:44 | -7.81980 | 18.71013 | 36010 ft | 472 kts | 344° |
| 2026-05-07 07:44 | -7.75694 | 18.69098 | 36001 ft | 472 kts | 344° |
| 2026-05-07 07:45 | -7.69406 | 18.67183 | 36002 ft | 472 kts | 344° |
| 2026-05-07 07:45 | -7.63113 | 18.65267 | 36006 ft | 472 kts | 344° |
| 2026-05-07 07:46 | -7.56824 | 18.63354 | 36006 ft | 472 kts | 344° |
| 2026-05-07 07:46 | -7.50532 | 18.61439 | 36005 ft | 472 kts | 344° |
| 2026-05-07 07:47 | -7.44286 | 18.59539 | 36006 ft | 472 kts | 344° |
| 2026-05-07 07:47 | -7.38000 | 18.57627 | 36006 ft | 472 kts | 344° |
| 2026-05-07 07:48 | -7.31711 | 18.55716 | 36004 ft | 472 kts | 344° |
| 2026-05-07 07:48 | -7.25418 | 18.53803 | 36005 ft | 472 kts | 344° |
| 2026-05-07 07:49 | -7.19128 | 18.51893 | 36002 ft | 472 kts | 344° |
| 2026-05-07 07:49 | -7.12824 | 18.50042 | 36004 ft | 471 kts | 345° |
| 2026-05-07 07:50 | -7.06501 | 18.48294 | 36006 ft | 471 kts | 345° |
| 2026-05-07 07:50 | -7.00176 | 18.46543 | 36010 ft | 471 kts | 345° |
| 2026-05-07 07:51 | -6.93859 | 18.44777 | 36013 ft | 471 kts | 345° |
| 2026-05-07 07:51 | -6.87539 | 18.43003 | 36006 ft | 471 kts | 345° |
| 2026-05-07 07:52 | -6.81223 | 18.41229 | 36004 ft | 471 kts | 345° |
| 2026-05-07 07:52 | -6.75969 | 18.39754 | 36006 ft | 471 kts | 345° |
| 2026-05-07 07:53 | -6.69657 | 18.37984 | 36003 ft | 471 kts | 345° |
| 2026-05-07 07:53 | -6.63341 | 18.36212 | 36004 ft | 471 kts | 345° |
| 2026-05-07 07:54 | -6.57028 | 18.34442 | 36005 ft | 471 kts | 345° |
| 2026-05-07 07:54 | -6.50711 | 18.32672 | 36003 ft | 471 kts | 345° |
| 2026-05-07 07:55 | -6.44401 | 18.30903 | 36005 ft | 470 kts | 345° |
| 2026-05-07 07:55 | -6.38101 | 18.29131 | 35999 ft | 470 kts | 345° |
| 2026-05-07 07:56 | -6.31807 | 18.27331 | 36003 ft | 470 kts | 345° |
| 2026-05-07 07:56 | -6.25511 | 18.25532 | 36003 ft | 470 kts | 345° |
| 2026-05-07 07:57 | -6.19223 | 18.23741 | 36001 ft | 470 kts | 345° |
| 2026-05-07 07:57 | -6.12912 | 18.21990 | 36004 ft | 470 kts | 345° |
| 2026-05-07 07:58 | -6.06602 | 18.20263 | 35998 ft | 470 kts | 345° |
| 2026-05-07 07:58 | -6.00300 | 18.18533 | 36000 ft | 470 kts | 345° |
| 2026-05-07 07:59 | -5.93997 | 18.16796 | 35995 ft | 470 kts | 345° |
| 2026-05-07 07:59 | -5.87689 | 18.15057 | 35993 ft | 470 kts | 345° |
| 2026-05-07 08:00 | -5.81386 | 18.13320 | 35996 ft | 470 kts | 345° |
| 2026-05-07 08:00 | -5.75123 | 18.11594 | 35992 ft | 469 kts | 345° |
| 2026-05-07 08:01 | -5.68831 | 18.09862 | 35989 ft | 469 kts | 345° |
| 2026-05-07 08:01 | -5.62529 | 18.08126 | 35989 ft | 469 kts | 345° |
| 2026-05-07 08:02 | -5.56231 | 18.06392 | 35986 ft | 469 kts | 345° |
| 2026-05-07 08:02 | -5.49936 | 18.04660 | 35978 ft | 469 kts | 345° |
| 2026-05-07 08:03 | -5.43635 | 18.02926 | 35981 ft | 469 kts | 345° |
| 2026-05-07 08:03 | -5.37331 | 18.01191 | 35987 ft | 469 kts | 345° |
| 2026-05-07 08:04 | -5.31044 | 17.99408 | 35979 ft | 469 kts | 345° |
| 2026-05-07 08:04 | -5.24762 | 17.97597 | 35983 ft | 470 kts | 345° |
| 2026-05-07 08:05 | -5.18479 | 17.95794 | 35970 ft | 469 kts | 345° |
| 2026-05-07 08:05 | -5.12192 | 17.93998 | 35976 ft | 469 kts | 345° |
| 2026-05-07 08:06 | -5.05914 | 17.92209 | 35970 ft | 470 kts | 345° |
| 2026-05-07 08:06 | -4.99660 | 17.90426 | 35973 ft | 470 kts | 345° |
| 2026-05-07 08:07 | -4.93362 | 17.88631 | 35966 ft | 470 kts | 345° |
| 2026-05-07 08:07 | -4.87060 | 17.86835 | 35962 ft | 470 kts | 345° |
| 2026-05-07 08:08 | -4.80760 | 17.85054 | 35960 ft | 470 kts | 345° |
| 2026-05-07 08:08 | -4.74457 | 17.83290 | 35953 ft | 470 kts | 345° |
| 2026-05-07 08:09 | -4.68152 | 17.81526 | 35957 ft | 471 kts | 345° |
| 2026-05-07 08:09 | -4.61846 | 17.79761 | 35951 ft | 471 kts | 345° |
| 2026-05-07 08:10 | -4.55538 | 17.77994 | 35954 ft | 471 kts | 345° |
| 2026-05-07 08:10 | -4.49226 | 17.76225 | 35954 ft | 471 kts | 345° |
| 2026-05-07 08:11 | -4.42902 | 17.74453 | 35955 ft | 471 kts | 345° |
| 2026-05-07 08:11 | -4.36596 | 17.72688 | 35953 ft | 471 kts | 345° |
| 2026-05-07 08:12 | -4.30271 | 17.70917 | 35957 ft | 471 kts | 345° |
| 2026-05-07 08:12 | -4.23952 | 17.69148 | 35955 ft | 472 kts | 345° |
| 2026-05-07 08:13 | -4.17624 | 17.67377 | 35950 ft | 472 kts | 345° |
| 2026-05-07 08:13 | -4.11306 | 17.65609 | 35953 ft | 472 kts | 345° |
| 2026-05-07 08:14 | -4.04984 | 17.63841 | 35951 ft | 472 kts | 345° |
| 2026-05-07 08:14 | -3.98663 | 17.62059 | 35954 ft | 472 kts | 345° |
| 2026-05-07 08:15 | -3.92346 | 17.60277 | 35950 ft | 471 kts | 345° |
| 2026-05-07 08:15 | -3.86025 | 17.58497 | 35947 ft | 471 kts | 345° |
| 2026-05-07 08:16 | -3.79707 | 17.56720 | 35954 ft | 471 kts | 345° |
| 2026-05-07 08:16 | -3.73426 | 17.54954 | 35949 ft | 472 kts | 345° |
| 2026-05-07 08:17 | -3.67106 | 17.53177 | 35947 ft | 472 kts | 345° |
| 2026-05-07 08:17 | -3.60789 | 17.51401 | 35946 ft | 471 kts | 345° |
| 2026-05-07 08:18 | -3.54473 | 17.49625 | 35948 ft | 471 kts | 345° |
| 2026-05-07 08:18 | -3.48160 | 17.47850 | 35950 ft | 471 kts | 345° |
| 2026-05-07 08:19 | -3.41844 | 17.46075 | 35945 ft | 471 kts | 345° |
| 2026-05-07 08:19 | -3.35522 | 17.44305 | 35944 ft | 471 kts | 345° |
| 2026-05-07 08:20 | -3.29207 | 17.42539 | 35944 ft | 471 kts | 345° |
| 2026-05-07 08:20 | -3.22890 | 17.40772 | 35944 ft | 472 kts | 345° |
| 2026-05-07 08:21 | -3.16564 | 17.39003 | 35953 ft | 472 kts | 345° |
| 2026-05-07 08:21 | -3.10244 | 17.37235 | 35946 ft | 471 kts | 345° |
| 2026-05-07 08:22 | -3.03926 | 17.35469 | 35948 ft | 471 kts | 345° |
| 2026-05-07 08:22 | -2.97604 | 17.33702 | 35943 ft | 471 kts | 345° |
| 2026-05-07 08:23 | -2.91279 | 17.31934 | 35945 ft | 471 kts | 345° |
| 2026-05-07 08:23 | -2.84961 | 17.30168 | 35947 ft | 472 kts | 345° |
| 2026-05-07 08:24 | -2.78635 | 17.28401 | 35952 ft | 472 kts | 345° |
| 2026-05-07 08:24 | -2.72307 | 17.26632 | 35946 ft | 472 kts | 345° |
| 2026-05-07 08:25 | -2.65983 | 17.24866 | 35950 ft | 472 kts | 345° |
| 2026-05-07 08:25 | -2.59658 | 17.23099 | 35952 ft | 472 kts | 345° |
| 2026-05-07 08:26 | -2.50210 | 17.20460 | 35945 ft | 472 kts | 345° |
| 2026-05-07 08:26 | -2.43889 | 17.18694 | 35946 ft | 471 kts | 345° |
| 2026-05-07 08:27 | -2.37572 | 17.16930 | 35950 ft | 472 kts | 345° |
| 2026-05-07 08:27 | -2.31244 | 17.15163 | 35952 ft | 472 kts | 345° |
| 2026-05-07 08:28 | -2.24924 | 17.13399 | 35948 ft | 471 kts | 345° |
| 2026-05-07 08:28 | -2.18605 | 17.11635 | 35955 ft | 471 kts | 345° |
| 2026-05-07 08:29 | -2.12295 | 17.09873 | 35948 ft | 471 kts | 345° |
| 2026-05-07 08:29 | -2.05988 | 17.08113 | 35950 ft | 470 kts | 345° |
| 2026-05-07 08:30 | -1.99682 | 17.06353 | 35953 ft | 470 kts | 345° |
| 2026-05-07 08:30 | -1.93369 | 17.04591 | 35965 ft | 470 kts | 345° |
| 2026-05-07 08:31 | -1.87066 | 17.02837 | 35965 ft | 469 kts | 345° |
| 2026-05-07 08:31 | -1.80815 | 17.01114 | 35956 ft | 469 kts | 345° |
| 2026-05-07 08:32 | -1.74528 | 16.99383 | 35954 ft | 468 kts | 345° |
| 2026-05-07 08:32 | -1.68254 | 16.97653 | 35955 ft | 468 kts | 345° |
| 2026-05-07 08:33 | -1.61975 | 16.95922 | 35959 ft | 468 kts | 345° |
| 2026-05-07 08:33 | -1.55700 | 16.94192 | 35954 ft | 468 kts | 345° |
| 2026-05-07 08:34 | -1.49419 | 16.92460 | 35956 ft | 468 kts | 345° |
| 2026-05-07 08:34 | -1.44202 | 16.91022 | 35968 ft | 468 kts | 345° |
| 2026-05-07 08:35 | -1.37939 | 16.89295 | 35961 ft | 467 kts | 345° |
| 2026-05-07 08:35 | -1.31680 | 16.87570 | 35961 ft | 466 kts | 345° |
| 2026-05-07 08:36 | -1.25425 | 16.85846 | 35959 ft | 467 kts | 345° |
| 2026-05-07 08:36 | -1.19164 | 16.84118 | 35959 ft | 467 kts | 345° |
| 2026-05-07 08:37 | -1.12914 | 16.82370 | 35962 ft | 467 kts | 345° |
| 2026-05-07 08:37 | -1.06663 | 16.80614 | 35974 ft | 467 kts | 345° |
| 2026-05-07 08:38 | -1.00404 | 16.78859 | 35960 ft | 467 kts | 345° |
| 2026-05-07 08:38 | -0.94134 | 16.77104 | 35958 ft | 467 kts | 345° |
| 2026-05-07 08:39 | -0.87873 | 16.75352 | 35955 ft | 467 kts | 345° |
| 2026-05-07 08:39 | -0.81609 | 16.73600 | 35955 ft | 467 kts | 345° |
| 2026-05-07 08:40 | -0.75340 | 16.71846 | 35958 ft | 467 kts | 345° |
| 2026-05-07 08:40 | -0.69078 | 16.70094 | 35961 ft | 467 kts | 345° |
| 2026-05-07 08:41 | -0.62817 | 16.68342 | 35956 ft | 466 kts | 345° |
| 2026-05-07 08:41 | -0.56578 | 16.66597 | 35955 ft | 466 kts | 345° |
| 2026-05-07 08:42 | -0.50334 | 16.64842 | 35952 ft | 466 kts | 345° |
| 2026-05-07 08:42 | -0.44087 | 16.63080 | 35959 ft | 466 kts | 345° |
| 2026-05-07 08:43 | -0.37850 | 16.61322 | 35952 ft | 466 kts | 345° |
| 2026-05-07 08:43 | -0.31609 | 16.59564 | 35954 ft | 466 kts | 345° |
| 2026-05-07 08:44 | -0.25363 | 16.57804 | 35963 ft | 466 kts | 345° |
| 2026-05-07 08:44 | -0.19125 | 16.56046 | 35944 ft | 465 kts | 345° |
| 2026-05-07 08:45 | -0.12925 | 16.54300 | 35952 ft | 466 kts | 345° |
| 2026-05-07 08:45 | -0.06687 | 16.52542 | 35956 ft | 466 kts | 345° |
| 2026-05-07 08:46 | -0.00448 | 16.50784 | 35959 ft | 466 kts | 345° |
| 2026-05-07 08:46 | 0.05785 | 16.49028 | 35955 ft | 465 kts | 345° |
| 2026-05-07 08:47 | 0.12005 | 16.47276 | 35952 ft | 464 kts | 345° |
| 2026-05-07 08:47 | 0.18222 | 16.45524 | 35954 ft | 464 kts | 345° |
| 2026-05-07 08:48 | 0.24443 | 16.43771 | 35952 ft | 464 kts | 345° |
| 2026-05-07 08:48 | 0.30660 | 16.42019 | 35966 ft | 464 kts | 345° |
| 2026-05-07 08:49 | 0.36878 | 16.40268 | 35958 ft | 464 kts | 345° |
| 2026-05-07 08:49 | 0.43098 | 16.38515 | 35953 ft | 463 kts | 345° |
| 2026-05-07 08:50 | 0.49304 | 16.36766 | 35953 ft | 463 kts | 345° |
| 2026-05-07 08:50 | 0.55503 | 16.35019 | 35953 ft | 463 kts | 345° |
| 2026-05-07 08:51 | 0.61701 | 16.33272 | 35948 ft | 462 kts | 345° |
| 2026-05-07 08:51 | 0.67876 | 16.31532 | 35948 ft | 461 kts | 345° |
| 2026-05-07 08:52 | 0.74051 | 16.29792 | 35955 ft | 461 kts | 345° |
| 2026-05-07 08:52 | 0.80217 | 16.28054 | 35954 ft | 460 kts | 345° |
| 2026-05-07 08:53 | 0.86337 | 16.26330 | 35950 ft | 460 kts | 345° |
| 2026-05-07 08:53 | 0.92493 | 16.24595 | 35958 ft | 460 kts | 345° |
| 2026-05-07 08:54 | 0.98654 | 16.22863 | 35954 ft | 460 kts | 345° |
| 2026-05-07 08:54 | 1.04809 | 16.21126 | 35950 ft | 460 kts | 345° |
| 2026-05-07 08:55 | 1.10969 | 16.19388 | 35952 ft | 460 kts | 345° |
| 2026-05-07 08:55 | 1.17125 | 16.17652 | 35954 ft | 460 kts | 345° |
| 2026-05-07 08:56 | 1.23281 | 16.15917 | 35954 ft | 460 kts | 345° |
| 2026-05-07 08:56 | 1.29433 | 16.14182 | 35955 ft | 460 kts | 345° |
| 2026-05-07 08:57 | 1.35590 | 16.12447 | 35955 ft | 460 kts | 345° |
| 2026-05-07 08:57 | 1.41753 | 16.10709 | 35955 ft | 460 kts | 345° |
| 2026-05-07 08:58 | 1.47907 | 16.08974 | 35950 ft | 460 kts | 346° |
| 2026-05-07 08:58 | 1.54051 | 16.07241 | 35949 ft | 458 kts | 346° |
| 2026-05-07 08:59 | 1.60185 | 16.05511 | 35957 ft | 458 kts | 346° |
| 2026-05-07 08:59 | 1.66321 | 16.03781 | 35958 ft | 458 kts | 346° |
| 2026-05-07 09:00 | 1.72447 | 16.02053 | 35961 ft | 457 kts | 346° |
| 2026-05-07 09:00 | 1.78574 | 16.00325 | 35962 ft | 457 kts | 346° |
| 2026-05-07 09:01 | 1.84700 | 15.98598 | 35959 ft | 458 kts | 345° |
| 2026-05-07 09:01 | 1.90835 | 15.96868 | 35962 ft | 457 kts | 345° |
| 2026-05-07 09:02 | 1.96958 | 15.95141 | 35956 ft | 457 kts | 345° |
| 2026-05-07 09:02 | 2.03072 | 15.93416 | 35959 ft | 457 kts | 345° |
| 2026-05-07 09:03 | 2.09196 | 15.91688 | 35960 ft | 457 kts | 345° |
| 2026-05-07 09:03 | 2.15284 | 15.89970 | 35958 ft | 457 kts | 345° |
| 2026-05-07 09:04 | 2.21442 | 15.88233 | 35959 ft | 457 kts | 345° |
| 2026-05-07 09:04 | 2.27570 | 15.86503 | 35958 ft | 458 kts | 345° |
| 2026-05-07 09:05 | 2.33662 | 15.84784 | 35958 ft | 458 kts | 345° |
| 2026-05-07 09:05 | 2.39797 | 15.83052 | 35957 ft | 458 kts | 345° |
| 2026-05-07 09:06 | 2.45935 | 15.81319 | 35958 ft | 458 kts | 345° |
| 2026-05-07 09:06 | 2.52069 | 15.79588 | 35953 ft | 458 kts | 345° |
| 2026-05-07 09:07 | 2.58201 | 15.77856 | 35959 ft | 458 kts | 345° |
| 2026-05-07 09:07 | 2.64333 | 15.76125 | 35958 ft | 458 kts | 345° |
| 2026-05-07 09:08 | 2.70467 | 15.74392 | 35960 ft | 458 kts | 345° |
| 2026-05-07 09:08 | 2.76605 | 15.72659 | 35962 ft | 458 kts | 345° |
| 2026-05-07 09:09 | 2.82733 | 15.70930 | 35962 ft | 458 kts | 345° |
| 2026-05-07 09:09 | 2.88865 | 15.69214 | 35957 ft | 458 kts | 345° |
| 2026-05-07 09:10 | 2.94997 | 15.67503 | 35959 ft | 457 kts | 346° |
| 2026-05-07 09:10 | 3.01123 | 15.65791 | 35959 ft | 455 kts | 346° |
| 2026-05-07 09:11 | 3.07220 | 15.64085 | 35962 ft | 455 kts | 346° |
| 2026-05-07 09:11 | 3.13313 | 15.62380 | 35960 ft | 454 kts | 346° |
| 2026-05-07 09:12 | 3.19396 | 15.60678 | 35961 ft | 454 kts | 346° |
| 2026-05-07 09:12 | 3.25495 | 15.58972 | 35963 ft | 454 kts | 346° |
| 2026-05-07 09:13 | 3.31539 | 15.57281 | 35970 ft | 454 kts | 346° |
| 2026-05-07 09:13 | 3.37626 | 15.55577 | 35966 ft | 454 kts | 346° |
| 2026-05-07 09:14 | 3.43711 | 15.53873 | 35963 ft | 454 kts | 346° |
| 2026-05-07 09:14 | 3.49796 | 15.52169 | 35961 ft | 454 kts | 346° |
| 2026-05-07 09:15 | 3.55880 | 15.50466 | 35958 ft | 454 kts | 346° |
| 2026-05-07 09:15 | 3.61966 | 15.48761 | 35966 ft | 454 kts | 346° |
| 2026-05-07 09:16 | 3.67062 | 15.47333 | 35967 ft | 454 kts | 346° |
| 2026-05-07 09:16 | 3.73139 | 15.45631 | 35961 ft | 453 kts | 346° |
| 2026-05-07 09:17 | 3.79199 | 15.43934 | 35963 ft | 452 kts | 346° |
| 2026-05-07 09:17 | 3.85257 | 15.42237 | 35957 ft | 452 kts | 346° |
| 2026-05-07 09:18 | 3.91313 | 15.40539 | 35962 ft | 452 kts | 346° |
| 2026-05-07 09:18 | 3.97372 | 15.38840 | 35959 ft | 452 kts | 346° |
| 2026-05-07 09:19 | 4.03395 | 15.37152 | 35960 ft | 452 kts | 346° |
| 2026-05-07 09:19 | 4.09454 | 15.35457 | 35961 ft | 452 kts | 346° |
| 2026-05-07 09:20 | 4.15548 | 15.33748 | 35962 ft | 452 kts | 346° |
| 2026-05-07 09:20 | 4.21612 | 15.32042 | 35961 ft | 452 kts | 346° |
| 2026-05-07 09:21 | 4.27624 | 15.30341 | 35960 ft | 452 kts | 346° |
| 2026-05-07 09:21 | 4.33673 | 15.28629 | 35960 ft | 452 kts | 346° |
| 2026-05-07 09:22 | 4.39734 | 15.26915 | 35961 ft | 452 kts | 346° |
| 2026-05-07 09:22 | 4.45791 | 15.25203 | 35958 ft | 452 kts | 346° |
| 2026-05-07 09:23 | 4.51860 | 15.23487 | 35958 ft | 452 kts | 346° |
| 2026-05-07 09:23 | 4.57913 | 15.21776 | 35960 ft | 452 kts | 346° |
| 2026-05-07 09:24 | 4.63976 | 15.20061 | 35960 ft | 452 kts | 346° |
| 2026-05-07 09:24 | 4.70041 | 15.18345 | 35959 ft | 452 kts | 346° |
| 2026-05-07 09:25 | 4.76100 | 15.16631 | 35959 ft | 452 kts | 346° |
| 2026-05-07 09:25 | 4.82154 | 15.14918 | 35959 ft | 452 kts | 346° |
| 2026-05-07 09:26 | 4.88208 | 15.13205 | 35962 ft | 451 kts | 346° |
| 2026-05-07 09:26 | 4.94255 | 15.11494 | 35961 ft | 451 kts | 346° |
| 2026-05-07 09:27 | 5.00303 | 15.09786 | 35962 ft | 451 kts | 346° |
| 2026-05-07 09:28 | 5.09372 | 15.07214 | 35968 ft | 451 kts | 346° |
| 2026-05-07 09:28 | 5.15423 | 15.05499 | 35968 ft | 451 kts | 346° |
| 2026-05-07 09:29 | 5.21462 | 15.03788 | 35962 ft | 450 kts | 346° |
| 2026-05-07 09:29 | 5.27485 | 15.02081 | 35963 ft | 450 kts | 346° |
| 2026-05-07 09:30 | 5.33516 | 15.00371 | 35964 ft | 450 kts | 346° |
| 2026-05-07 09:30 | 5.39538 | 14.98664 | 35962 ft | 450 kts | 346° |
| 2026-05-07 09:31 | 5.45531 | 14.96965 | 35966 ft | 450 kts | 346° |
| 2026-05-07 09:31 | 5.51560 | 14.95255 | 35971 ft | 450 kts | 346° |
| 2026-05-07 09:32 | 5.57580 | 14.93548 | 35962 ft | 449 kts | 346° |
| 2026-05-07 09:32 | 5.63592 | 14.91842 | 35974 ft | 448 kts | 346° |
| 2026-05-07 09:33 | 5.69596 | 14.90138 | 35969 ft | 448 kts | 346° |
| 2026-05-07 09:33 | 5.75593 | 14.88435 | 35970 ft | 448 kts | 346° |
| 2026-05-07 09:34 | 5.81591 | 14.86732 | 35970 ft | 448 kts | 346° |
| 2026-05-07 09:34 | 5.87587 | 14.85029 | 35970 ft | 448 kts | 346° |
| 2026-05-07 09:35 | 5.93577 | 14.83328 | 35972 ft | 448 kts | 345° |
| 2026-05-07 09:35 | 5.99582 | 14.81622 | 35969 ft | 448 kts | 345° |
| 2026-05-07 09:36 | 6.05575 | 14.79919 | 35972 ft | 448 kts | 345° |
| 2026-05-07 09:36 | 6.11566 | 14.78216 | 35971 ft | 448 kts | 345° |
| 2026-05-07 09:37 | 6.17565 | 14.76510 | 35975 ft | 448 kts | 345° |
| 2026-05-07 09:37 | 6.23555 | 14.74807 | 35975 ft | 447 kts | 345° |
| 2026-05-07 09:38 | 6.29512 | 14.73113 | 35975 ft | 447 kts | 345° |
| 2026-05-07 09:38 | 6.35506 | 14.71407 | 35978 ft | 447 kts | 345° |
| 2026-05-07 09:39 | 6.41495 | 14.69703 | 35979 ft | 447 kts | 345° |
| 2026-05-07 09:39 | 6.47478 | 14.68000 | 35979 ft | 447 kts | 345° |
| 2026-05-07 09:40 | 6.53465 | 14.66295 | 35981 ft | 447 kts | 345° |
| 2026-05-07 09:40 | 6.59454 | 14.64586 | 35979 ft | 447 kts | 345° |
| 2026-05-07 09:41 | 6.65440 | 14.62881 | 35981 ft | 447 kts | 345° |
| 2026-05-07 09:41 | 6.71420 | 14.61179 | 35985 ft | 446 kts | 345° |
| 2026-05-07 09:42 | 6.77396 | 14.59477 | 35977 ft | 446 kts | 345° |
| 2026-05-07 09:42 | 6.83379 | 14.57771 | 35978 ft | 447 kts | 345° |
| 2026-05-07 09:43 | 6.89357 | 14.56066 | 35980 ft | 446 kts | 345° |
| 2026-05-07 09:43 | 6.95333 | 14.54362 | 35978 ft | 446 kts | 345° |
| 2026-05-07 09:44 | 7.01316 | 14.52655 | 35977 ft | 447 kts | 345° |
| 2026-05-07 09:44 | 7.07298 | 14.50947 | 35963 ft | 446 kts | 345° |
| 2026-05-07 09:45 | 7.13276 | 14.49241 | 35974 ft | 446 kts | 345° |
| 2026-05-07 09:45 | 7.19250 | 14.47535 | 35972 ft | 446 kts | 345° |
| 2026-05-07 09:46 | 7.25233 | 14.45826 | 35977 ft | 447 kts | 345° |
| 2026-05-07 09:46 | 7.31170 | 14.44135 | 35974 ft | 446 kts | 345° |
| 2026-05-07 09:47 | 7.37147 | 14.42424 | 35967 ft | 447 kts | 345° |
| 2026-05-07 09:47 | 7.43164 | 14.40703 | 35961 ft | 447 kts | 345° |
| 2026-05-07 09:48 | 7.49143 | 14.38992 | 35964 ft | 447 kts | 345° |
| 2026-05-07 09:48 | 7.55082 | 14.37293 | 35952 ft | 446 kts | 345° |
| 2026-05-07 09:49 | 7.61059 | 14.35583 | 35961 ft | 446 kts | 345° |
| 2026-05-07 09:49 | 7.67038 | 14.33872 | 35955 ft | 446 kts | 345° |
| 2026-05-07 09:50 | 7.73020 | 14.32159 | 35963 ft | 446 kts | 345° |
| 2026-05-07 09:50 | 7.78997 | 14.30448 | 35951 ft | 446 kts | 345° |
| 2026-05-07 09:51 | 7.84963 | 14.28739 | 35937 ft | 446 kts | 345° |
| 2026-05-07 09:51 | 7.90935 | 14.27027 | 35932 ft | 446 kts | 345° |
| 2026-05-07 09:52 | 7.96905 | 14.25316 | 35917 ft | 446 kts | 345° |
| 2026-05-07 09:52 | 8.02870 | 14.23610 | 35918 ft | 446 kts | 345° |
| 2026-05-07 09:53 | 8.08844 | 14.21898 | 35918 ft | 446 kts | 345° |
| 2026-05-07 09:53 | 8.14807 | 14.20185 | 35908 ft | 445 kts | 345° |
| 2026-05-07 09:54 | 8.20767 | 14.18474 | 35907 ft | 445 kts | 345° |
| 2026-05-07 09:54 | 8.26724 | 14.16765 | 35888 ft | 445 kts | 345° |
| 2026-05-07 09:55 | 8.32683 | 14.15054 | 35889 ft | 445 kts | 345° |
| 2026-05-07 09:55 | 8.38647 | 14.13342 | 35882 ft | 445 kts | 345° |
| 2026-05-07 09:56 | 8.43602 | 14.11919 | 35881 ft | 445 kts | 345° |
| 2026-05-07 09:56 | 8.49562 | 14.10207 | 35878 ft | 444 kts | 344° |
| 2026-05-07 09:57 | 8.56453 | 14.08227 | 35879 ft | 442 kts | 344° |
| 2026-05-07 09:57 | 8.61419 | 14.06799 | 35883 ft | 442 kts | 344° |
| 2026-05-07 09:58 | 8.67336 | 14.05097 | 35883 ft | 442 kts | 344° |
| 2026-05-07 09:58 | 8.73256 | 14.03398 | 35884 ft | 442 kts | 344° |
| 2026-05-07 09:59 | 8.79183 | 14.01689 | 35883 ft | 442 kts | 344° |
| 2026-05-07 09:59 | 8.85100 | 13.99982 | 35884 ft | 442 kts | 344° |
| 2026-05-07 10:00 | 8.91021 | 13.98275 | 35884 ft | 442 kts | 344° |
| 2026-05-07 10:00 | 8.96890 | 13.96584 | 35889 ft | 441 kts | 344° |
| 2026-05-07 10:01 | 9.02798 | 13.94880 | 35888 ft | 441 kts | 344° |
| 2026-05-07 10:01 | 9.08751 | 13.93163 | 35883 ft | 442 kts | 344° |
| 2026-05-07 10:02 | 9.14630 | 13.91467 | 35887 ft | 442 kts | 344° |
| 2026-05-07 10:02 | 9.20540 | 13.89761 | 35885 ft | 442 kts | 344° |
| 2026-05-07 10:03 | 9.26475 | 13.88047 | 35896 ft | 445 kts | 344° |
| 2026-05-07 10:03 | 9.32426 | 13.86328 | 35891 ft | 445 kts | 344° |
| 2026-05-07 10:04 | 9.38382 | 13.84607 | 35890 ft | 443 kts | 344° |
| 2026-05-07 10:04 | 9.44277 | 13.82873 | 35897 ft | 440 kts | 344° |
| 2026-05-07 10:05 | 9.50156 | 13.81134 | 35897 ft | 440 kts | 344° |
| 2026-05-07 10:05 | 9.56035 | 13.79419 | 35913 ft | 440 kts | 345° |
| 2026-05-07 10:06 | 9.61943 | 13.77715 | 35902 ft | 443 kts | 345° |
| 2026-05-07 10:06 | 9.67878 | 13.76002 | 35915 ft | 444 kts | 345° |
| 2026-05-07 10:07 | 9.73824 | 13.74282 | 35915 ft | 444 kts | 345° |
| 2026-05-07 10:07 | 9.79727 | 13.72573 | 35913 ft | 444 kts | 345° |
| 2026-05-07 10:08 | 9.85673 | 13.70851 | 35930 ft | 444 kts | 345° |
| 2026-05-07 10:08 | 9.91617 | 13.69129 | 35932 ft | 444 kts | 345° |
| 2026-05-07 10:09 | 9.97587 | 13.67398 | 35934 ft | 450 kts | 345° |
| 2026-05-07 10:09 | 10.03678 | 13.65632 | 35942 ft | 459 kts | 345° |
| 2026-05-07 10:10 | 10.09806 | 13.63859 | 35942 ft | 457 kts | 345° |
| 2026-05-07 10:10 | 10.15911 | 13.62095 | 35954 ft | 456 kts | 345° |
| 2026-05-07 10:11 | 10.22020 | 13.60329 | 35953 ft | 457 kts | 345° |
| 2026-05-07 10:11 | 10.28127 | 13.58562 | 35953 ft | 456 kts | 345° |
| 2026-05-07 10:12 | 10.34223 | 13.56799 | 35957 ft | 454 kts | 344° |
| 2026-05-07 10:12 | 10.40294 | 13.55041 | 35960 ft | 453 kts | 344° |
| 2026-05-07 10:13 | 10.46361 | 13.53283 | 35950 ft | 453 kts | 344° |
| 2026-05-07 10:13 | 10.52424 | 13.51527 | 35951 ft | 453 kts | 344° |
| 2026-05-07 10:14 | 10.58487 | 13.49770 | 35946 ft | 453 kts | 344° |
| 2026-05-07 10:14 | 10.64533 | 13.47988 | 35935 ft | 452 kts | 343° |
| 2026-05-07 10:15 | 10.70540 | 13.46107 | 35929 ft | 451 kts | 343° |
| 2026-05-07 10:15 | 10.76526 | 13.44223 | 35919 ft | 451 kts | 343° |
| 2026-05-07 10:16 | 10.82529 | 13.42350 | 35917 ft | 451 kts | 343° |
| 2026-05-07 10:16 | 10.88534 | 13.40486 | 35931 ft | 451 kts | 343° |
| 2026-05-07 10:17 | 10.94529 | 13.38625 | 35924 ft | 451 kts | 343° |
| 2026-05-07 10:17 | 11.00534 | 13.36760 | 35924 ft | 451 kts | 343° |
| 2026-05-07 10:18 | 11.06514 | 13.34902 | 35895 ft | 447 kts | 343° |
| 2026-05-07 10:18 | 11.12451 | 13.33056 | 35898 ft | 445 kts | 343° |
| 2026-05-07 10:19 | 11.18377 | 13.31212 | 35896 ft | 445 kts | 343° |
| 2026-05-07 10:19 | 11.24308 | 13.29366 | 35889 ft | 445 kts | 343° |
| 2026-05-07 10:20 | 11.30244 | 13.27519 | 35880 ft | 446 kts | 343° |
| 2026-05-07 10:20 | 11.36132 | 13.25685 | 35882 ft | 446 kts | 343° |
| 2026-05-07 10:21 | 11.42097 | 13.23826 | 35880 ft | 445 kts | 343° |
| 2026-05-07 10:21 | 11.47967 | 13.21996 | 35881 ft | 444 kts | 343° |
| 2026-05-07 10:22 | 11.53872 | 13.20154 | 35877 ft | 444 kts | 343° |
| 2026-05-07 10:22 | 11.59774 | 13.18313 | 35870 ft | 444 kts | 343° |
| 2026-05-07 10:23 | 11.65678 | 13.16470 | 35872 ft | 444 kts | 343° |
| 2026-05-07 10:23 | 11.71580 | 13.14627 | 35868 ft | 444 kts | 343° |
| 2026-05-07 10:24 | 11.77482 | 13.12782 | 35865 ft | 443 kts | 343° |
| 2026-05-07 10:24 | 11.83363 | 13.10945 | 35866 ft | 441 kts | 343° |
| 2026-05-07 10:25 | 11.89238 | 13.09123 | 35858 ft | 441 kts | 344° |
| 2026-05-07 10:25 | 11.95177 | 13.07513 | 35860 ft | 441 kts | 346° |
| 2026-05-07 10:26 | 12.01130 | 13.05973 | 35857 ft | 441 kts | 346° |
| 2026-05-07 10:26 | 12.07080 | 13.04402 | 35856 ft | 441 kts | 345° |
| 2026-05-07 10:27 | 12.13020 | 13.02808 | 35858 ft | 441 kts | 345° |
| 2026-05-07 10:27 | 12.18947 | 13.01209 | 35851 ft | 440 kts | 345° |
| 2026-05-07 10:28 | 12.24837 | 12.99620 | 35847 ft | 440 kts | 345° |
| 2026-05-07 10:28 | 12.30762 | 12.98022 | 35851 ft | 440 kts | 345° |
| 2026-05-07 10:29 | 12.36689 | 12.96425 | 35850 ft | 440 kts | 345° |
| 2026-05-07 10:29 | 12.42613 | 12.94829 | 35850 ft | 440 kts | 345° |
| 2026-05-07 10:30 | 12.51494 | 12.92426 | 35853 ft | 440 kts | 345° |
| 2026-05-07 10:30 | 12.57416 | 12.90825 | 35857 ft | 440 kts | 345° |
| 2026-05-07 10:31 | 12.63322 | 12.89227 | 35855 ft | 440 kts | 345° |
| 2026-05-07 10:31 | 12.69240 | 12.87626 | 35853 ft | 440 kts | 345° |
| 2026-05-07 10:32 | 12.75162 | 12.86023 | 35856 ft | 440 kts | 345° |
| 2026-05-07 10:32 | 12.81079 | 12.84421 | 35856 ft | 440 kts | 345° |
| 2026-05-07 10:33 | 12.86995 | 12.82818 | 35857 ft | 439 kts | 345° |
| 2026-05-07 10:33 | 12.92903 | 12.81216 | 35856 ft | 439 kts | 345° |
| 2026-05-07 10:34 | 12.98814 | 12.79613 | 35856 ft | 439 kts | 345° |
| 2026-05-07 10:34 | 13.04728 | 12.78008 | 35857 ft | 439 kts | 345° |
| 2026-05-07 10:35 | 13.10631 | 12.76406 | 35856 ft | 439 kts | 345° |
| 2026-05-07 10:35 | 13.16541 | 12.74800 | 35857 ft | 439 kts | 345° |
| 2026-05-07 10:36 | 13.22414 | 12.73204 | 35854 ft | 439 kts | 344° |
| 2026-05-07 10:36 | 13.28313 | 12.71600 | 35854 ft | 438 kts | 344° |
| 2026-05-07 10:37 | 13.34198 | 12.69963 | 35853 ft | 438 kts | 343° |
| 2026-05-07 10:37 | 13.40079 | 12.68270 | 35854 ft | 438 kts | 343° |
| 2026-05-07 10:38 | 13.45954 | 12.66583 | 35854 ft | 438 kts | 343° |
| 2026-05-07 10:38 | 13.50842 | 12.65186 | 35851 ft | 438 kts | 344° |
| 2026-05-07 10:39 | 13.56724 | 12.63510 | 35851 ft | 438 kts | 343° |
| 2026-05-07 10:39 | 13.62602 | 12.61834 | 35854 ft | 438 kts | 343° |
| 2026-05-07 10:40 | 13.68477 | 12.60158 | 35854 ft | 438 kts | 343° |
| 2026-05-07 10:40 | 13.74353 | 12.58481 | 35854 ft | 438 kts | 343° |
| 2026-05-07 10:41 | 13.80226 | 12.56804 | 35854 ft | 438 kts | 343° |
| 2026-05-07 10:41 | 13.86102 | 12.55124 | 35853 ft | 438 kts | 343° |
| 2026-05-07 10:42 | 13.91975 | 12.53445 | 35855 ft | 438 kts | 343° |
| 2026-05-07 10:42 | 13.97837 | 12.51768 | 35856 ft | 437 kts | 343° |
| 2026-05-07 10:43 | 14.03694 | 12.50092 | 35860 ft | 437 kts | 343° |
| 2026-05-07 10:43 | 14.09558 | 12.48412 | 35859 ft | 437 kts | 343° |
| 2026-05-07 10:44 | 14.15417 | 12.46734 | 35857 ft | 437 kts | 343° |
| 2026-05-07 10:44 | 14.21275 | 12.45054 | 35860 ft | 437 kts | 343° |
| 2026-05-07 10:45 | 14.27122 | 12.43366 | 35859 ft | 437 kts | 343° |
| 2026-05-07 10:45 | 14.32976 | 12.41671 | 35860 ft | 437 kts | 343° |
| 2026-05-07 10:46 | 14.38833 | 12.39976 | 35859 ft | 437 kts | 343° |
| 2026-05-07 10:46 | 14.44685 | 12.38282 | 35859 ft | 437 kts | 343° |
| 2026-05-07 10:47 | 14.50538 | 12.36588 | 35860 ft | 437 kts | 343° |
| 2026-05-07 10:47 | 14.56399 | 12.34891 | 35857 ft | 437 kts | 343° |
| 2026-05-07 10:48 | 14.62258 | 12.33193 | 35864 ft | 437 kts | 343° |
| 2026-05-07 10:48 | 14.68113 | 12.31495 | 35860 ft | 437 kts | 343° |
| 2026-05-07 10:49 | 14.73935 | 12.29806 | 35859 ft | 437 kts | 343° |
| 2026-05-07 10:49 | 14.79786 | 12.28108 | 35859 ft | 437 kts | 343° |
| 2026-05-07 10:50 | 14.85641 | 12.26407 | 35856 ft | 437 kts | 343° |
| 2026-05-07 10:50 | 14.91506 | 12.24703 | 35857 ft | 437 kts | 343° |
| 2026-05-07 10:51 | 14.97368 | 12.22999 | 35859 ft | 437 kts | 343° |
| 2026-05-07 10:51 | 15.03218 | 12.21297 | 35862 ft | 436 kts | 343° |
| 2026-05-07 10:52 | 15.09066 | 12.19594 | 35862 ft | 436 kts | 343° |
| 2026-05-07 10:52 | 15.14916 | 12.17890 | 35856 ft | 436 kts | 343° |
| 2026-05-07 10:53 | 15.20757 | 12.16188 | 35862 ft | 436 kts | 343° |
| 2026-05-07 10:53 | 15.26600 | 12.14484 | 35862 ft | 436 kts | 343° |
| 2026-05-07 10:54 | 15.32438 | 12.12782 | 35869 ft | 436 kts | 342° |
| 2026-05-07 10:54 | 15.38276 | 12.11068 | 35867 ft | 436 kts | 342° |
| 2026-05-07 10:55 | 15.44115 | 12.09353 | 35867 ft | 436 kts | 342° |
| 2026-05-07 10:55 | 15.49951 | 12.07639 | 35867 ft | 436 kts | 342° |
| 2026-05-07 10:56 | 15.55785 | 12.05927 | 35867 ft | 436 kts | 342° |
| 2026-05-07 10:56 | 15.61621 | 12.04213 | 35871 ft | 436 kts | 342° |
| 2026-05-07 10:57 | 15.67463 | 12.02496 | 35871 ft | 436 kts | 342° |
| 2026-05-07 10:57 | 15.73201 | 12.00811 | 35874 ft | 422 kts | 342° |
| 2026-05-07 10:58 | 15.78835 | 11.99153 | 35871 ft | 420 kts | 342° |
| 2026-05-07 10:58 | 15.84461 | 11.97494 | 35870 ft | 421 kts | 342° |
| 2026-05-07 10:59 | 15.90096 | 11.95833 | 35870 ft | 421 kts | 342° |
| 2026-05-07 10:59 | 15.95728 | 11.94173 | 35870 ft | 421 kts | 342° |
| 2026-05-07 11:00 | 16.01357 | 11.92513 | 35872 ft | 421 kts | 342° |
| 2026-05-07 11:00 | 16.06958 | 11.90860 | 35873 ft | 421 kts | 341° |
| 2026-05-07 11:01 | 16.12598 | 11.89194 | 35865 ft | 421 kts | 342° |
| 2026-05-07 11:01 | 16.18237 | 11.87527 | 35865 ft | 421 kts | 341° |
| 2026-05-07 11:02 | 16.23881 | 11.85858 | 35865 ft | 421 kts | 342° |
| 2026-05-07 11:02 | 16.29515 | 11.84191 | 35862 ft | 421 kts | 341° |
| 2026-05-07 11:03 | 16.35159 | 11.82521 | 35862 ft | 421 kts | 341° |
| 2026-05-07 11:03 | 16.40797 | 11.80852 | 35862 ft | 421 kts | 341° |
| 2026-05-07 11:04 | 16.46440 | 11.79180 | 35861 ft | 421 kts | 341° |
| 2026-05-07 11:04 | 16.52079 | 11.77507 | 35862 ft | 421 kts | 341° |
| 2026-05-07 11:05 | 16.57722 | 11.75832 | 35862 ft | 421 kts | 341° |
| 2026-05-07 11:05 | 16.63324 | 11.74169 | 35856 ft | 421 kts | 341° |
| 2026-05-07 11:06 | 16.68963 | 11.72494 | 35854 ft | 421 kts | 341° |
| 2026-05-07 11:06 | 16.74602 | 11.70817 | 35858 ft | 421 kts | 341° |
| 2026-05-07 11:07 | 16.80242 | 11.69140 | 35858 ft | 421 kts | 341° |
| 2026-05-07 11:07 | 16.85874 | 11.67464 | 35854 ft | 421 kts | 341° |
| 2026-05-07 11:08 | 16.91526 | 11.65780 | 35858 ft | 423 kts | 341° |
| 2026-05-07 11:08 | 16.97180 | 11.64095 | 35856 ft | 423 kts | 341° |
| 2026-05-07 11:09 | 17.02843 | 11.62406 | 35860 ft | 423 kts | 341° |
| 2026-05-07 11:09 | 17.08506 | 11.60716 | 35862 ft | 423 kts | 340° |
| 2026-05-07 11:10 | 17.14161 | 11.59028 | 35861 ft | 422 kts | 340° |
| 2026-05-07 11:10 | 17.19814 | 11.57338 | 35859 ft | 422 kts | 340° |
| 2026-05-07 11:11 | 17.25467 | 11.55649 | 35860 ft | 423 kts | 340° |
| 2026-05-07 11:11 | 17.31120 | 11.53958 | 35861 ft | 422 kts | 340° |
| 2026-05-07 11:12 | 17.36776 | 11.52265 | 35858 ft | 423 kts | 340° |
| 2026-05-07 11:12 | 17.42422 | 11.50572 | 35861 ft | 422 kts | 340° |
| 2026-05-07 11:13 | 17.47860 | 11.48333 | 35859 ft | 419 kts | 333° |
| 2026-05-07 11:13 | 17.53175 | 11.45835 | 35859 ft | 419 kts | 332° |
| 2026-05-07 11:14 | 17.58466 | 11.43299 | 35856 ft | 419 kts | 332° |
| 2026-05-07 11:14 | 17.63775 | 11.40757 | 35856 ft | 418 kts | 332° |
| 2026-05-07 11:15 | 17.69075 | 11.38227 | 35857 ft | 418 kts | 332° |
| 2026-05-07 11:15 | 17.74339 | 11.35716 | 35856 ft | 418 kts | 332° |
| 2026-05-07 11:16 | 17.79645 | 11.33184 | 35856 ft | 418 kts | 332° |
| 2026-05-07 11:16 | 17.84946 | 11.30651 | 35858 ft | 419 kts | 332° |
| 2026-05-07 11:17 | 17.90254 | 11.28113 | 35855 ft | 420 kts | 332° |
| 2026-05-07 11:17 | 17.95581 | 11.25565 | 35856 ft | 420 kts | 332° |
| 2026-05-07 11:18 | 18.00906 | 11.23016 | 35857 ft | 420 kts | 332° |
| 2026-05-07 11:18 | 18.06234 | 11.20463 | 35856 ft | 420 kts | 332° |
| 2026-05-07 11:19 | 18.11563 | 11.17910 | 35860 ft | 420 kts | 332° |
| 2026-05-07 11:19 | 18.16876 | 11.15362 | 35856 ft | 419 kts | 332° |
| 2026-05-07 11:20 | 18.22156 | 11.12828 | 35856 ft | 419 kts | 332° |
| 2026-05-07 11:20 | 18.27463 | 11.10279 | 35853 ft | 419 kts | 332° |
| 2026-05-07 11:21 | 18.31911 | 11.08140 | 35851 ft | 419 kts | 332° |
| 2026-05-07 11:21 | 18.37219 | 11.05588 | 35851 ft | 419 kts | 332° |
| 2026-05-07 11:22 | 18.42526 | 11.03034 | 35850 ft | 419 kts | 332° |
| 2026-05-07 11:22 | 18.47805 | 11.00493 | 35852 ft | 419 kts | 332° |
| 2026-05-07 11:23 | 18.53098 | 10.97942 | 35849 ft | 418 kts | 331° |
| 2026-05-07 11:23 | 18.58391 | 10.95389 | 35850 ft | 418 kts | 331° |
| 2026-05-07 11:24 | 18.63684 | 10.92834 | 35847 ft | 418 kts | 331° |
| 2026-05-07 11:24 | 18.68977 | 10.90277 | 35848 ft | 418 kts | 331° |
| 2026-05-07 11:25 | 18.74270 | 10.87719 | 35845 ft | 418 kts | 331° |
| 2026-05-07 11:25 | 18.79562 | 10.85160 | 35845 ft | 418 kts | 331° |
| 2026-05-07 11:26 | 18.84852 | 10.82600 | 35845 ft | 418 kts | 331° |
| 2026-05-07 11:26 | 18.90137 | 10.80040 | 35845 ft | 418 kts | 331° |
| 2026-05-07 11:27 | 18.95421 | 10.77479 | 35845 ft | 418 kts | 331° |
| 2026-05-07 11:27 | 19.00711 | 10.74913 | 35845 ft | 418 kts | 331° |
| 2026-05-07 11:28 | 19.05994 | 10.72349 | 35842 ft | 418 kts | 331° |
| 2026-05-07 11:28 | 19.11276 | 10.69784 | 35844 ft | 418 kts | 331° |
| 2026-05-07 11:29 | 19.16564 | 10.67214 | 35847 ft | 418 kts | 331° |
| 2026-05-07 11:29 | 19.21837 | 10.64650 | 35845 ft | 417 kts | 331° |
| 2026-05-07 11:30 | 19.27104 | 10.62087 | 35846 ft | 416 kts | 331° |
| 2026-05-07 11:30 | 19.32368 | 10.59522 | 35846 ft | 416 kts | 331° |
| 2026-05-07 11:31 | 19.37638 | 10.56954 | 35845 ft | 416 kts | 330° |
| 2026-05-07 11:31 | 19.42906 | 10.54384 | 35841 ft | 418 kts | 330° |
| 2026-05-07 11:32 | 19.50836 | 10.50513 | 35851 ft | 418 kts | 330° |
| 2026-05-07 11:33 | 19.56111 | 10.47936 | 35851 ft | 417 kts | 330° |
| 2026-05-07 11:33 | 19.61373 | 10.45363 | 35849 ft | 416 kts | 330° |
| 2026-05-07 11:34 | 19.66634 | 10.42789 | 35836 ft | 416 kts | 330° |
| 2026-05-07 11:34 | 19.71896 | 10.40211 | 35851 ft | 417 kts | 330° |
| 2026-05-07 11:35 | 19.77159 | 10.37632 | 35852 ft | 416 kts | 330° |
| 2026-05-07 11:35 | 19.82427 | 10.35049 | 35834 ft | 416 kts | 330° |
| 2026-05-07 11:36 | 19.87687 | 10.32467 | 35842 ft | 416 kts | 330° |
| 2026-05-07 11:36 | 19.92943 | 10.29886 | 35838 ft | 416 kts | 330° |
| 2026-05-07 11:37 | 19.98196 | 10.27304 | 35842 ft | 416 kts | 330° |
| 2026-05-07 11:37 | 20.03418 | 10.24736 | 35841 ft | 416 kts | 330° |
| 2026-05-07 11:38 | 20.08677 | 10.22147 | 35859 ft | 416 kts | 330° |
| 2026-05-07 11:38 | 20.13965 | 10.19542 | 35856 ft | 416 kts | 330° |
| 2026-05-07 11:39 | 20.19196 | 10.16963 | 35842 ft | 418 kts | 330° |
| 2026-05-07 11:39 | 20.24479 | 10.14356 | 35844 ft | 419 kts | 330° |
| 2026-05-07 11:40 | 20.29769 | 10.11745 | 35844 ft | 419 kts | 330° |
| 2026-05-07 11:40 | 20.35058 | 10.09132 | 35842 ft | 419 kts | 330° |
| 2026-05-07 11:41 | 20.40347 | 10.06517 | 35842 ft | 419 kts | 330° |
| 2026-05-07 11:41 | 20.45636 | 10.03900 | 35839 ft | 419 kts | 330° |
| 2026-05-07 11:42 | 20.50925 | 10.01282 | 35840 ft | 419 kts | 330° |
| 2026-05-07 11:42 | 20.56225 | 9.98655 | 35841 ft | 420 kts | 330° |
| 2026-05-07 11:43 | 20.61535 | 9.96020 | 35842 ft | 421 kts | 330° |
| 2026-05-07 11:43 | 20.66813 | 9.93401 | 35839 ft | 421 kts | 330° |
| 2026-05-07 11:44 | 20.72126 | 9.90763 | 35839 ft | 421 kts | 330° |
| 2026-05-07 11:44 | 20.77432 | 9.88125 | 35839 ft | 421 kts | 330° |
| 2026-05-07 11:45 | 20.82745 | 9.85482 | 35838 ft | 421 kts | 330° |
| 2026-05-07 11:45 | 20.88059 | 9.82837 | 35847 ft | 422 kts | 329° |
| 2026-05-07 11:46 | 20.93397 | 9.80175 | 35840 ft | 424 kts | 329° |
| 2026-05-07 11:46 | 20.98756 | 9.77503 | 35839 ft | 425 kts | 329° |
| 2026-05-07 11:47 | 21.04118 | 9.74828 | 35836 ft | 425 kts | 329° |
| 2026-05-07 11:47 | 21.09479 | 9.72151 | 35838 ft | 425 kts | 329° |
| 2026-05-07 11:48 | 21.14839 | 9.69472 | 35834 ft | 425 kts | 329° |
| 2026-05-07 11:48 | 21.20194 | 9.66793 | 35835 ft | 425 kts | 329° |
| 2026-05-07 11:49 | 21.25559 | 9.64107 | 35833 ft | 425 kts | 329° |
| 2026-05-07 11:49 | 21.30916 | 9.61423 | 35834 ft | 425 kts | 329° |
| 2026-05-07 11:50 | 21.36274 | 9.58736 | 35836 ft | 425 kts | 329° |
| 2026-05-07 11:50 | 21.41632 | 9.56047 | 35835 ft | 425 kts | 329° |
| 2026-05-07 11:51 | 21.46990 | 9.53356 | 35834 ft | 425 kts | 329° |
| 2026-05-07 11:51 | 21.52348 | 9.50662 | 35843 ft | 425 kts | 329° |
| 2026-05-07 11:52 | 21.57690 | 9.47976 | 35829 ft | 423 kts | 328° |
| 2026-05-07 11:52 | 21.63013 | 9.45296 | 35829 ft | 422 kts | 328° |
| 2026-05-07 11:53 | 21.68342 | 9.42609 | 35830 ft | 423 kts | 328° |
| 2026-05-07 11:53 | 21.73671 | 9.39921 | 35830 ft | 423 kts | 328° |
| 2026-05-07 11:54 | 21.79000 | 9.37232 | 35824 ft | 423 kts | 328° |
| 2026-05-07 11:54 | 21.84328 | 9.34540 | 35828 ft | 423 kts | 328° |
| 2026-05-07 11:55 | 21.89660 | 9.31845 | 35831 ft | 422 kts | 328° |
| 2026-05-07 11:55 | 21.95075 | 9.29340 | 35822 ft | 426 kts | 332° |
| 2026-05-07 11:56 | 22.00660 | 9.27170 | 35821 ft | 427 kts | 333° |
| 2026-05-07 11:56 | 22.06269 | 9.25050 | 35821 ft | 427 kts | 333° |
| 2026-05-07 11:57 | 22.11880 | 9.22930 | 35814 ft | 427 kts | 333° |
| 2026-05-07 11:57 | 22.17489 | 9.20802 | 35818 ft | 427 kts | 333° |
| 2026-05-07 11:58 | 22.23094 | 9.18670 | 35820 ft | 427 kts | 333° |
| 2026-05-07 11:58 | 22.28689 | 9.16540 | 35816 ft | 426 kts | 333° |
| 2026-05-07 11:59 | 22.34279 | 9.14409 | 35817 ft | 426 kts | 333° |
| 2026-05-07 11:59 | 22.39875 | 9.12274 | 35815 ft | 426 kts | 333° |
| 2026-05-07 12:00 | 22.45467 | 9.10139 | 35818 ft | 426 kts | 333° |
| 2026-05-07 12:00 | 22.50110 | 9.08365 | 35821 ft | 426 kts | 333° |
| 2026-05-07 12:01 | 22.55706 | 9.06226 | 35814 ft | 427 kts | 333° |
| 2026-05-07 12:01 | 22.61307 | 9.04082 | 35820 ft | 427 kts | 333° |
| 2026-05-07 12:02 | 22.66908 | 9.01936 | 35820 ft | 427 kts | 333° |
| 2026-05-07 12:02 | 22.72503 | 8.99792 | 35819 ft | 427 kts | 333° |
| 2026-05-07 12:03 | 22.78110 | 8.97641 | 35835 ft | 427 kts | 333° |
| 2026-05-07 12:03 | 22.83710 | 8.95490 | 35817 ft | 427 kts | 333° |
| 2026-05-07 12:04 | 22.89309 | 8.93338 | 35822 ft | 427 kts | 332° |
| 2026-05-07 12:04 | 22.94909 | 8.91184 | 35823 ft | 427 kts | 332° |
| 2026-05-07 12:05 | 23.00510 | 8.89028 | 35823 ft | 427 kts | 332° |
| 2026-05-07 12:05 | 23.06110 | 8.86870 | 35823 ft | 427 kts | 332° |
| 2026-05-07 12:06 | 23.11710 | 8.84710 | 35827 ft | 427 kts | 332° |
| 2026-05-07 12:06 | 23.17312 | 8.82548 | 35826 ft | 427 kts | 332° |
| 2026-05-07 12:07 | 23.22910 | 8.80386 | 35830 ft | 426 kts | 332° |
| 2026-05-07 12:07 | 23.28496 | 8.78226 | 35829 ft | 426 kts | 332° |
| 2026-05-07 12:08 | 23.34079 | 8.76064 | 35828 ft | 426 kts | 332° |
| 2026-05-07 12:08 | 23.39632 | 8.73913 | 35821 ft | 426 kts | 332° |
| 2026-05-07 12:09 | 23.45216 | 8.71748 | 35822 ft | 426 kts | 332° |
| 2026-05-07 12:09 | 23.50809 | 8.69576 | 35826 ft | 427 kts | 332° |
| 2026-05-07 12:10 | 23.56401 | 8.67403 | 35816 ft | 427 kts | 332° |
| 2026-05-07 12:10 | 23.61998 | 8.65228 | 35815 ft | 427 kts | 332° |
| 2026-05-07 12:11 | 23.67599 | 8.63048 | 35814 ft | 427 kts | 332° |
| 2026-05-07 12:11 | 23.73193 | 8.60869 | 35813 ft | 427 kts | 332° |
| 2026-05-07 12:12 | 23.78785 | 8.58689 | 35806 ft | 427 kts | 332° |
| 2026-05-07 12:12 | 23.84383 | 8.56504 | 35814 ft | 427 kts | 332° |
| 2026-05-07 12:13 | 23.89974 | 8.54320 | 35800 ft | 427 kts | 332° |
| 2026-05-07 12:13 | 23.95561 | 8.52136 | 35798 ft | 427 kts | 332° |
| 2026-05-07 12:14 | 24.01157 | 8.49946 | 35796 ft | 427 kts | 332° |
| 2026-05-07 12:14 | 24.06741 | 8.47759 | 35803 ft | 427 kts | 332° |
| 2026-05-07 12:15 | 24.12335 | 8.45565 | 35799 ft | 426 kts | 332° |
| 2026-05-07 12:15 | 24.17917 | 8.43375 | 35809 ft | 427 kts | 331° |
| 2026-05-07 12:16 | 24.23515 | 8.41176 | 35804 ft | 427 kts | 331° |
| 2026-05-07 12:16 | 24.29109 | 8.38976 | 35807 ft | 427 kts | 331° |
| 2026-05-07 12:17 | 24.34704 | 8.36775 | 35808 ft | 427 kts | 331° |
| 2026-05-07 12:17 | 24.40262 | 8.34586 | 35807 ft | 427 kts | 331° |
| 2026-05-07 12:18 | 24.45865 | 8.32376 | 35818 ft | 429 kts | 331° |
| 2026-05-07 12:18 | 24.51486 | 8.30157 | 35820 ft | 429 kts | 331° |
| 2026-05-07 12:19 | 24.57116 | 8.27934 | 35831 ft | 429 kts | 331° |
| 2026-05-07 12:19 | 24.62739 | 8.25712 | 35829 ft | 429 kts | 331° |
| 2026-05-07 12:20 | 24.68363 | 8.23487 | 35830 ft | 429 kts | 331° |
| 2026-05-07 12:20 | 24.73985 | 8.21259 | 35829 ft | 429 kts | 331° |
| 2026-05-07 12:21 | 24.79611 | 8.19028 | 35864 ft | 430 kts | 330° |
| 2026-05-07 12:21 | 24.85239 | 8.16794 | 35852 ft | 430 kts | 330° |
| 2026-05-07 12:22 | 24.90832 | 8.14571 | 35851 ft | 429 kts | 330° |
| 2026-05-07 12:22 | 24.96444 | 8.12340 | 35866 ft | 429 kts | 330° |
| 2026-05-07 12:23 | 25.02059 | 8.10103 | 35863 ft | 429 kts | 330° |
| 2026-05-07 12:23 | 25.07677 | 8.07867 | 35872 ft | 429 kts | 330° |
| 2026-05-07 12:24 | 25.13295 | 8.05627 | 35873 ft | 429 kts | 330° |
| 2026-05-07 12:24 | 25.18915 | 8.03382 | 35873 ft | 430 kts | 330° |
| 2026-05-07 12:25 | 25.24535 | 8.01135 | 35873 ft | 429 kts | 330° |
| 2026-05-07 12:25 | 25.30148 | 7.98891 | 35868 ft | 429 kts | 330° |
| 2026-05-07 12:26 | 25.35769 | 7.96642 | 35869 ft | 429 kts | 330° |
| 2026-05-07 12:26 | 25.41385 | 7.94389 | 35865 ft | 430 kts | 330° |
| 2026-05-07 12:27 | 25.47008 | 7.92134 | 35866 ft | 430 kts | 329° |
| 2026-05-07 12:27 | 25.52623 | 7.89880 | 35865 ft | 429 kts | 330° |
| 2026-05-07 12:28 | 25.58229 | 7.87627 | 35874 ft | 428 kts | 329° |
| 2026-05-07 12:28 | 25.63836 | 7.85371 | 35876 ft | 429 kts | 329° |
| 2026-05-07 12:29 | 25.69447 | 7.83111 | 35881 ft | 428 kts | 329° |
| 2026-05-07 12:29 | 25.75048 | 7.80855 | 35902 ft | 429 kts | 329° |
| 2026-05-07 12:30 | 25.80655 | 7.78589 | 35892 ft | 429 kts | 329° |
| 2026-05-07 12:30 | 25.86268 | 7.76320 | 35895 ft | 429 kts | 329° |
| 2026-05-07 12:31 | 25.91864 | 7.74056 | 35898 ft | 428 kts | 329° |
| 2026-05-07 12:31 | 25.97464 | 7.71789 | 35901 ft | 428 kts | 329° |
| 2026-05-07 12:32 | 26.03066 | 7.69524 | 35903 ft | 429 kts | 329° |
| 2026-05-07 12:32 | 26.08696 | 7.67278 | 35906 ft | 429 kts | 329° |
| 2026-05-07 12:33 | 26.17121 | 7.63917 | 35899 ft | 429 kts | 329° |
| 2026-05-07 12:33 | 26.22737 | 7.61668 | 35895 ft | 429 kts | 329° |
| 2026-05-07 12:34 | 26.28315 | 7.59431 | 35895 ft | 429 kts | 329° |
| 2026-05-07 12:34 | 26.33932 | 7.57177 | 35885 ft | 429 kts | 329° |
| 2026-05-07 12:35 | 26.39565 | 7.54912 | 35892 ft | 430 kts | 329° |
| 2026-05-07 12:35 | 26.45196 | 7.52647 | 35877 ft | 430 kts | 329° |
| 2026-05-07 12:36 | 26.50825 | 7.50378 | 35878 ft | 430 kts | 329° |
| 2026-05-07 12:36 | 26.56457 | 7.48110 | 35868 ft | 430 kts | 329° |
| 2026-05-07 12:37 | 26.62086 | 7.45838 | 35869 ft | 430 kts | 329° |
| 2026-05-07 12:37 | 26.67713 | 7.43565 | 35897 ft | 430 kts | 329° |
| 2026-05-07 12:38 | 26.73332 | 7.41295 | 35868 ft | 429 kts | 329° |
| 2026-05-07 12:38 | 26.78950 | 7.39021 | 35868 ft | 429 kts | 329° |
| 2026-05-07 12:39 | 26.84570 | 7.36744 | 35862 ft | 429 kts | 329° |
| 2026-05-07 12:39 | 26.90181 | 7.34469 | 35862 ft | 429 kts | 329° |
| 2026-05-07 12:40 | 26.95762 | 7.32203 | 35861 ft | 429 kts | 329° |
| 2026-05-07 12:40 | 27.01374 | 7.29921 | 35870 ft | 429 kts | 329° |
| 2026-05-07 12:41 | 27.06985 | 7.27637 | 35869 ft | 429 kts | 329° |
| 2026-05-07 12:41 | 27.12590 | 7.25352 | 35864 ft | 429 kts | 329° |
| 2026-05-07 12:42 | 27.18210 | 7.23060 | 35868 ft | 429 kts | 329° |
| 2026-05-07 12:42 | 27.23822 | 7.20769 | 35866 ft | 429 kts | 329° |
| 2026-05-07 12:43 | 27.28489 | 7.18861 | 35869 ft | 429 kts | 329° |
| 2026-05-07 12:43 | 27.34108 | 7.16563 | 35867 ft | 430 kts | 329° |
| 2026-05-07 12:44 | 27.39730 | 7.14262 | 35868 ft | 430 kts | 329° |
| 2026-05-07 12:44 | 27.45342 | 7.11962 | 35871 ft | 430 kts | 329° |
| 2026-05-07 12:45 | 27.50961 | 7.09656 | 35870 ft | 430 kts | 329° |
| 2026-05-07 12:45 | 27.56590 | 7.07343 | 35874 ft | 430 kts | 329° |
| 2026-05-07 12:46 | 27.62212 | 7.05031 | 35872 ft | 430 kts | 329° |
| 2026-05-07 12:46 | 27.67832 | 7.02717 | 35874 ft | 430 kts | 329° |
| 2026-05-07 12:47 | 27.73457 | 7.00399 | 35874 ft | 430 kts | 329° |
| 2026-05-07 12:47 | 27.79036 | 6.98097 | 35878 ft | 430 kts | 329° |
| 2026-05-07 12:48 | 27.84650 | 6.95779 | 35880 ft | 430 kts | 329° |
| 2026-05-07 12:48 | 27.90269 | 6.93456 | 35902 ft | 431 kts | 329° |
| 2026-05-07 12:49 | 27.95902 | 6.91120 | 35878 ft | 432 kts | 329° |
| 2026-05-07 12:49 | 28.01546 | 6.88778 | 35878 ft | 432 kts | 329° |
| 2026-05-07 12:50 | 28.07192 | 6.86436 | 35880 ft | 432 kts | 329° |
| 2026-05-07 12:50 | 28.12942 | 6.84319 | 35881 ft | 444 kts | 338° |
| 2026-05-07 12:51 | 28.19219 | 6.83674 | 35891 ft | 457 kts | 347° |
| 2026-05-07 12:51 | 28.25605 | 6.83495 | 35888 ft | 460 kts | 349° |
| 2026-05-07 12:52 | 28.32019 | 6.83377 | 35884 ft | 461 kts | 348° |
| 2026-05-07 12:52 | 28.38433 | 6.83237 | 35886 ft | 461 kts | 348° |
| 2026-05-07 12:53 | 28.44849 | 6.83073 | 35886 ft | 461 kts | 348° |
| 2026-05-07 12:53 | 28.51259 | 6.82903 | 35891 ft | 461 kts | 348° |
| 2026-05-07 12:54 | 28.57670 | 6.82732 | 35884 ft | 460 kts | 348° |
| 2026-05-07 12:54 | 28.64070 | 6.82562 | 35883 ft | 460 kts | 348° |
| 2026-05-07 12:55 | 28.70463 | 6.82392 | 35887 ft | 460 kts | 348° |
| 2026-05-07 12:55 | 28.76870 | 6.82222 | 35885 ft | 460 kts | 348° |
| 2026-05-07 12:56 | 28.83268 | 6.82052 | 35884 ft | 459 kts | 348° |
| 2026-05-07 12:56 | 28.89655 | 6.81885 | 35893 ft | 459 kts | 348° |
| 2026-05-07 12:57 | 28.96044 | 6.81714 | 35886 ft | 459 kts | 349° |
| 2026-05-07 12:57 | 29.02428 | 6.81544 | 35881 ft | 459 kts | 349° |
| 2026-05-07 12:58 | 29.08813 | 6.81374 | 35905 ft | 459 kts | 349° |
| 2026-05-07 12:58 | 29.15185 | 6.81205 | 35886 ft | 457 kts | 349° |
| 2026-05-07 12:59 | 29.21502 | 6.81038 | 35881 ft | 457 kts | 349° |
| 2026-05-07 12:59 | 29.27909 | 6.80865 | 35883 ft | 457 kts | 349° |
| 2026-05-07 13:00 | 29.34228 | 6.80693 | 35887 ft | 457 kts | 349° |
| 2026-05-07 13:00 | 29.40602 | 6.80522 | 35891 ft | 458 kts | 349° |
| 2026-05-07 13:01 | 29.46974 | 6.80352 | 35884 ft | 458 kts | 349° |
| 2026-05-07 13:01 | 29.53357 | 6.80182 | 35883 ft | 458 kts | 349° |
| 2026-05-07 13:02 | 29.59734 | 6.80010 | 35882 ft | 458 kts | 348° |
| 2026-05-07 13:02 | 29.66110 | 6.79839 | 35905 ft | 458 kts | 349° |
| 2026-05-07 13:03 | 29.72481 | 6.79669 | 35887 ft | 458 kts | 349° |
| 2026-05-07 13:03 | 29.78838 | 6.79496 | 35875 ft | 457 kts | 349° |
| 2026-05-07 13:04 | 29.85205 | 6.79323 | 35880 ft | 458 kts | 349° |
| 2026-05-07 13:04 | 29.91573 | 6.79151 | 35876 ft | 458 kts | 349° |
| 2026-05-07 13:05 | 29.97947 | 6.78980 | 35879 ft | 457 kts | 349° |
| 2026-05-07 13:05 | 30.04296 | 6.78808 | 35874 ft | 457 kts | 349° |
| 2026-05-07 13:06 | 30.10656 | 6.78634 | 35877 ft | 457 kts | 349° |
| 2026-05-07 13:06 | 30.17009 | 6.78462 | 35872 ft | 457 kts | 349° |
| 2026-05-07 13:07 | 30.23365 | 6.78287 | 35884 ft | 457 kts | 349° |
| 2026-05-07 13:07 | 30.29754 | 6.78109 | 35870 ft | 461 kts | 350° |
| 2026-05-07 13:08 | 30.36193 | 6.77932 | 35869 ft | 463 kts | 350° |
| 2026-05-07 13:08 | 30.42631 | 6.77759 | 35867 ft | 463 kts | 350° |
| 2026-05-07 13:09 | 30.49068 | 6.77585 | 35866 ft | 463 kts | 350° |
| 2026-05-07 13:09 | 30.55505 | 6.77409 | 35865 ft | 463 kts | 350° |
| 2026-05-07 13:10 | 30.61942 | 6.77231 | 35866 ft | 463 kts | 350° |
| 2026-05-07 13:10 | 30.68337 | 6.77055 | 35863 ft | 463 kts | 350° |
| 2026-05-07 13:11 | 30.74783 | 6.76878 | 35866 ft | 463 kts | 350° |
| 2026-05-07 13:11 | 30.81227 | 6.76700 | 35867 ft | 464 kts | 349° |
| 2026-05-07 13:12 | 30.87714 | 6.76517 | 35861 ft | 467 kts | 349° |
| 2026-05-07 13:12 | 30.94215 | 6.76339 | 35859 ft | 467 kts | 349° |
| 2026-05-07 13:13 | 31.00711 | 6.76161 | 35859 ft | 467 kts | 349° |
| 2026-05-07 13:13 | 31.07221 | 6.75981 | 35879 ft | 467 kts | 349° |
| 2026-05-07 13:14 | 31.13742 | 6.75799 | 35851 ft | 469 kts | 349° |
| 2026-05-07 13:14 | 31.20272 | 6.75617 | 35850 ft | 470 kts | 349° |
| 2026-05-07 13:15 | 31.26805 | 6.75436 | 35853 ft | 469 kts | 349° |
| 2026-05-07 13:15 | 31.33335 | 6.75255 | 35853 ft | 469 kts | 349° |
| 2026-05-07 13:16 | 31.39866 | 6.75073 | 35851 ft | 470 kts | 349° |
| 2026-05-07 13:16 | 31.46405 | 6.74889 | 35852 ft | 470 kts | 349° |
| 2026-05-07 13:17 | 31.52944 | 6.74706 | 35848 ft | 470 kts | 349° |
| 2026-05-07 13:17 | 31.59486 | 6.74523 | 35850 ft | 470 kts | 349° |
| 2026-05-07 13:18 | 31.66036 | 6.74338 | 35862 ft | 471 kts | 349° |
| 2026-05-07 13:18 | 31.72597 | 6.74152 | 35842 ft | 473 kts | 349° |
| 2026-05-07 13:19 | 31.79181 | 6.73967 | 35846 ft | 473 kts | 349° |
| 2026-05-07 13:19 | 31.85762 | 6.73783 | 35847 ft | 473 kts | 349° |
| 2026-05-07 13:20 | 31.92348 | 6.73598 | 35850 ft | 473 kts | 349° |
| 2026-05-07 13:20 | 31.98952 | 6.73409 | 35844 ft | 475 kts | 349° |
| 2026-05-07 13:21 | 32.05531 | 6.73223 | 35840 ft | 476 kts | 349° |
| 2026-05-07 13:21 | 32.12158 | 6.73037 | 35839 ft | 476 kts | 349° |
| 2026-05-07 13:22 | 32.18776 | 6.72850 | 35847 ft | 476 kts | 349° |
| 2026-05-07 13:22 | 32.25390 | 6.72662 | 35834 ft | 475 kts | 349° |
| 2026-05-07 13:23 | 32.30923 | 6.72505 | 35834 ft | 475 kts | 349° |
| 2026-05-07 13:23 | 32.38606 | 6.72285 | 35830 ft | 475 kts | 349° |
| 2026-05-07 13:24 | 32.44153 | 6.72125 | 35860 ft | 475 kts | 349° |
| 2026-05-07 13:24 | 32.50723 | 6.71936 | 35829 ft | 475 kts | 349° |
| 2026-05-07 13:25 | 32.57331 | 6.71748 | 35832 ft | 475 kts | 349° |
| 2026-05-07 13:25 | 32.63936 | 6.71560 | 35831 ft | 475 kts | 349° |
| 2026-05-07 13:26 | 32.70545 | 6.71370 | 35829 ft | 475 kts | 349° |
| 2026-05-07 13:26 | 32.77164 | 6.71179 | 35829 ft | 476 kts | 349° |
| 2026-05-07 13:27 | 32.83786 | 6.70987 | 35829 ft | 476 kts | 349° |
| 2026-05-07 13:27 | 32.90405 | 6.70796 | 35829 ft | 476 kts | 349° |
| 2026-05-07 13:28 | 32.97028 | 6.70605 | 35829 ft | 476 kts | 349° |
| 2026-05-07 13:28 | 33.03660 | 6.70414 | 35827 ft | 477 kts | 349° |
| 2026-05-07 13:29 | 33.10300 | 6.70221 | 35829 ft | 477 kts | 349° |
| 2026-05-07 13:29 | 33.16938 | 6.70029 | 35827 ft | 477 kts | 349° |
| 2026-05-07 13:30 | 33.23580 | 6.69836 | 35821 ft | 477 kts | 349° |
| 2026-05-07 13:30 | 33.30229 | 6.69642 | 35814 ft | 478 kts | 349° |
| 2026-05-07 13:31 | 33.36867 | 6.69449 | 35806 ft | 478 kts | 349° |
| 2026-05-07 13:31 | 33.43515 | 6.69255 | 35802 ft | 477 kts | 349° |
| 2026-05-07 13:32 | 33.50149 | 6.69061 | 35805 ft | 477 kts | 349° |
| 2026-05-07 13:32 | 33.56800 | 6.68864 | 35803 ft | 478 kts | 349° |
| 2026-05-07 13:33 | 33.63458 | 6.68668 | 35808 ft | 479 kts | 349° |
| 2026-05-07 13:33 | 33.70129 | 6.68473 | 35813 ft | 479 kts | 349° |
| 2026-05-07 13:34 | 33.80080 | 6.68181 | 35841 ft | 480 kts | 349° |
| 2026-05-07 13:35 | 33.86787 | 6.67980 | 35828 ft | 482 kts | 349° |
| 2026-05-07 13:35 | 33.93492 | 6.67783 | 35832 ft | 482 kts | 349° |
| 2026-05-07 13:36 | 34.00202 | 6.67586 | 35830 ft | 482 kts | 349° |
| 2026-05-07 13:36 | 34.06920 | 6.67388 | 35839 ft | 483 kts | 349° |
| 2026-05-07 13:37 | 34.13640 | 6.67186 | 35829 ft | 484 kts | 349° |
| 2026-05-07 13:37 | 34.20376 | 6.66986 | 35837 ft | 484 kts | 349° |
| 2026-05-07 13:38 | 34.27132 | 6.66786 | 35843 ft | 484 kts | 349° |
| 2026-05-07 13:38 | 34.33876 | 6.66585 | 35850 ft | 487 kts | 348° |
| 2026-05-07 13:39 | 34.40667 | 6.66377 | 35850 ft | 490 kts | 349° |
| 2026-05-07 13:39 | 34.47493 | 6.66174 | 35863 ft | 490 kts | 349° |
| 2026-05-07 13:40 | 34.54315 | 6.65973 | 35857 ft | 490 kts | 349° |
| 2026-05-07 13:40 | 34.61139 | 6.65769 | 35868 ft | 492 kts | 348° |
| 2026-05-07 13:41 | 34.67988 | 6.65561 | 35883 ft | 493 kts | 348° |
| 2026-05-07 13:41 | 34.74840 | 6.65356 | 35880 ft | 493 kts | 348° |
| 2026-05-07 13:42 | 34.81704 | 6.65150 | 35910 ft | 493 kts | 348° |
| 2026-05-07 13:42 | 34.88564 | 6.64950 | 35898 ft | 494 kts | 348° |
| 2026-05-07 13:43 | 34.95393 | 6.64755 | 35900 ft | 494 kts | 348° |
| 2026-05-07 13:43 | 35.02272 | 6.64557 | 35907 ft | 494 kts | 348° |
| 2026-05-07 13:44 | 35.09163 | 6.64359 | 35919 ft | 495 kts | 348° |
| 2026-05-07 13:44 | 35.16079 | 6.64153 | 35912 ft | 498 kts | 348° |
| 2026-05-07 13:45 | 35.23021 | 6.63951 | 35905 ft | 499 kts | 348° |
| 2026-05-07 13:45 | 35.29969 | 6.63751 | 35904 ft | 499 kts | 348° |
| 2026-05-07 13:46 | 35.36921 | 6.63553 | 35891 ft | 499 kts | 348° |
| 2026-05-07 13:46 | 35.43890 | 6.63344 | 35889 ft | 502 kts | 348° |
| 2026-05-07 13:47 | 35.50881 | 6.63134 | 35881 ft | 503 kts | 348° |
| 2026-05-07 13:47 | 35.57880 | 6.62929 | 35909 ft | 503 kts | 347° |
| 2026-05-07 13:48 | 35.64869 | 6.62725 | 35875 ft | 503 kts | 347° |
| 2026-05-07 13:48 | 35.71875 | 6.62518 | 35873 ft | 504 kts | 347° |
| 2026-05-07 13:49 | 35.78894 | 6.62312 | 35870 ft | 504 kts | 347° |
| 2026-05-07 13:49 | 35.85912 | 6.62107 | 35873 ft | 505 kts | 347° |
| 2026-05-07 13:50 | 35.92939 | 6.61898 | 35873 ft | 504 kts | 347° |
| 2026-05-07 13:50 | 35.99961 | 6.61689 | 35883 ft | 504 kts | 347° |
| 2026-05-07 13:51 | 36.06973 | 6.61480 | 35918 ft | 504 kts | 347° |
| 2026-05-07 13:51 | 36.13988 | 6.61269 | 35903 ft | 504 kts | 347° |
| 2026-05-07 13:52 | 36.21003 | 6.61060 | 35910 ft | 504 kts | 347° |
| 2026-05-07 13:52 | 36.28029 | 6.60876 | 35906 ft | 509 kts | 350° |
| 2026-05-07 13:53 | 36.35183 | 6.61652 | 35922 ft | 518 kts | 356° |
| 2026-05-07 13:53 | 36.42316 | 6.62722 | 35898 ft | 521 kts | 358° |
| 2026-05-07 13:54 | 36.49519 | 6.63858 | 35896 ft | 521 kts | 357° |
| 2026-05-07 13:54 | 36.56724 | 6.64968 | 35904 ft | 521 kts | 357° |
| 2026-05-07 13:55 | 36.63919 | 6.66070 | 35867 ft | 521 kts | 357° |
| 2026-05-07 13:55 | 36.71124 | 6.67174 | 35877 ft | 522 kts | 357° |
| 2026-05-07 13:56 | 36.78341 | 6.68295 | 35873 ft | 522 kts | 357° |
| 2026-05-07 13:56 | 36.85542 | 6.69390 | 35883 ft | 522 kts | 358° |
| 2026-05-07 13:57 | 36.92782 | 6.70500 | 35876 ft | 524 kts | 358° |
| 2026-05-07 13:57 | 37.00041 | 6.71612 | 35881 ft | 525 kts | 358° |
| 2026-05-07 13:58 | 37.07287 | 6.72732 | 35886 ft | 524 kts | 358° |
| 2026-05-07 13:58 | 37.14540 | 6.73853 | 35878 ft | 526 kts | 358° |
| 2026-05-07 13:59 | 37.21764 | 6.74972 | 35878 ft | 526 kts | 358° |
| 2026-05-07 13:59 | 37.29069 | 6.76107 | 35901 ft | 526 kts | 357° |
| 2026-05-07 14:00 | 37.36299 | 6.77231 | 35879 ft | 528 kts | 357° |
| 2026-05-07 14:00 | 37.43597 | 6.78367 | 35883 ft | 529 kts | 357° |
| 2026-05-07 14:01 | 37.50908 | 6.79510 | 35885 ft | 529 kts | 357° |
| 2026-05-07 14:01 | 37.58205 | 6.80655 | 35877 ft | 528 kts | 357° |
| 2026-05-07 14:02 | 37.65488 | 6.81798 | 35879 ft | 527 kts | 357° |
| 2026-05-07 14:02 | 37.72769 | 6.82941 | 35891 ft | 527 kts | 357° |
| 2026-05-07 14:03 | 37.80057 | 6.84088 | 35889 ft | 526 kts | 357° |
| 2026-05-07 14:03 | 37.87308 | 6.85234 | 35899 ft | 525 kts | 356° |
| 2026-05-07 14:04 | 37.94569 | 6.86381 | 35891 ft | 525 kts | 356° |
| 2026-05-07 14:04 | 38.01825 | 6.87528 | 35904 ft | 525 kts | 357° |
| 2026-05-07 14:05 | 38.07839 | 6.88483 | 35902 ft | 524 kts | 357° |
| 2026-05-07 14:05 | 38.15070 | 6.89633 | 35905 ft | 524 kts | 357° |
| 2026-05-07 14:06 | 38.23471 | 6.90970 | 35907 ft | 524 kts | 357° |
| 2026-05-07 14:06 | 38.29531 | 6.91937 | 35913 ft | 524 kts | 357° |
| 2026-05-07 14:07 | 38.36762 | 6.93093 | 35912 ft | 524 kts | 357° |
| 2026-05-07 14:07 | 38.43993 | 6.94252 | 35911 ft | 524 kts | 357° |
| 2026-05-07 14:08 | 38.51211 | 6.95413 | 35912 ft | 521 kts | 357° |
| 2026-05-07 14:08 | 38.58399 | 6.96572 | 35914 ft | 519 kts | 357° |
| 2026-05-07 14:09 | 38.65571 | 6.97726 | 35914 ft | 519 kts | 357° |
| 2026-05-07 14:09 | 38.72741 | 6.98882 | 35916 ft | 518 kts | 357° |
| 2026-05-07 14:10 | 38.79875 | 7.00040 | 35921 ft | 516 kts | 357° |
| 2026-05-07 14:10 | 38.86956 | 7.01187 | 35922 ft | 516 kts | 357° |
| 2026-05-07 14:11 | 38.94077 | 7.02342 | 35925 ft | 515 kts | 358° |
| 2026-05-07 14:11 | 39.01154 | 7.03499 | 35922 ft | 511 kts | 358° |
| 2026-05-07 14:12 | 39.08205 | 7.04721 | 35923 ft | 511 kts | 359° |
| 2026-05-07 14:12 | 39.15254 | 7.05980 | 35937 ft | 511 kts | 359° |
| 2026-05-07 14:13 | 39.22279 | 7.07236 | 35925 ft | 508 kts | 359° |
| 2026-05-07 14:13 | 39.29275 | 7.08480 | 35928 ft | 507 kts | 359° |
| 2026-05-07 14:14 | 39.36267 | 7.09718 | 35928 ft | 507 kts | 359° |
| 2026-05-07 14:14 | 39.43248 | 7.10961 | 35930 ft | 504 kts | 359° |
| 2026-05-07 14:15 | 39.50182 | 7.12197 | 35931 ft | 502 kts | 359° |
| 2026-05-07 14:15 | 39.57109 | 7.13431 | 35933 ft | 502 kts | 359° |
| 2026-05-07 14:16 | 39.64030 | 7.14668 | 35929 ft | 501 kts | 360° |
| 2026-05-07 14:16 | 39.70929 | 7.15913 | 35932 ft | 500 kts | 0° |
| 2026-05-07 14:17 | 39.77734 | 7.18302 | 35926 ft | 510 kts | 11° |
| 2026-05-07 14:17 | 39.84425 | 7.21226 | 35943 ft | 509 kts | 13° |
| 2026-05-07 14:18 | 39.91077 | 7.24228 | 35943 ft | 504 kts | 13° |
| 2026-05-07 14:18 | 39.97713 | 7.27210 | 35945 ft | 504 kts | 13° |
| 2026-05-07 14:19 | 40.04347 | 7.30176 | 35948 ft | 504 kts | 13° |
| 2026-05-07 14:19 | 40.10966 | 7.33137 | 35940 ft | 502 kts | 13° |
| 2026-05-07 14:20 | 40.17578 | 7.36101 | 35947 ft | 502 kts | 13° |
| 2026-05-07 14:20 | 40.24144 | 7.39050 | 35969 ft | 502 kts | 13° |
| 2026-05-07 14:21 | 40.30785 | 7.42040 | 35946 ft | 501 kts | 13° |
| 2026-05-07 14:21 | 40.37373 | 7.45013 | 35950 ft | 500 kts | 13° |
| 2026-05-07 14:22 | 40.43914 | 7.47970 | 35953 ft | 500 kts | 13° |
| 2026-05-07 14:22 | 40.50498 | 7.50953 | 35957 ft | 500 kts | 13° |
| 2026-05-07 14:23 | 40.57082 | 7.53942 | 35954 ft | 500 kts | 13° |
| 2026-05-07 14:23 | 40.63665 | 7.56937 | 35955 ft | 500 kts | 13° |
| 2026-05-07 14:24 | 40.70244 | 7.59938 | 35947 ft | 500 kts | 13° |
| 2026-05-07 14:24 | 40.76801 | 7.62934 | 35958 ft | 499 kts | 13° |
| 2026-05-07 14:25 | 40.83373 | 7.65942 | 35959 ft | 499 kts | 13° |
| 2026-05-07 14:25 | 40.89932 | 7.68950 | 35966 ft | 499 kts | 13° |
| 2026-05-07 14:26 | 40.96477 | 7.71961 | 35963 ft | 497 kts | 13° |
| 2026-05-07 14:26 | 41.03014 | 7.74972 | 35961 ft | 497 kts | 13° |
| 2026-05-07 14:27 | 41.09551 | 7.77989 | 35982 ft | 498 kts | 13° |
| 2026-05-07 14:27 | 41.16092 | 7.81016 | 35968 ft | 497 kts | 13° |
| 2026-05-07 14:28 | 41.22622 | 7.84044 | 35971 ft | 497 kts | 13° |
| 2026-05-07 14:28 | 41.29153 | 7.87078 | 35975 ft | 497 kts | 13° |
| 2026-05-07 14:29 | 41.35640 | 7.90099 | 35975 ft | 496 kts | 13° |
| 2026-05-07 14:29 | 41.42149 | 7.93136 | 35974 ft | 495 kts | 13° |
| 2026-05-07 14:30 | 41.48656 | 7.96178 | 35975 ft | 495 kts | 13° |
| 2026-05-07 14:30 | 41.55158 | 7.99225 | 35980 ft | 495 kts | 13° |
| 2026-05-07 14:31 | 41.61654 | 8.02276 | 35982 ft | 494 kts | 13° |
| 2026-05-07 14:31 | 41.68139 | 8.05328 | 35983 ft | 494 kts | 13° |
| 2026-05-07 14:32 | 41.74621 | 8.08384 | 35982 ft | 493 kts | 13° |
| 2026-05-07 14:32 | 41.81123 | 8.11459 | 35982 ft | 492 kts | 13° |
| 2026-05-07 14:33 | 41.87530 | 8.14492 | 35985 ft | 492 kts | 13° |
| 2026-05-07 14:33 | 41.93983 | 8.17554 | 35988 ft | 491 kts | 13° |
| 2026-05-07 14:34 | 42.00420 | 8.20618 | 35985 ft | 490 kts | 13° |
| 2026-05-07 14:34 | 42.06847 | 8.23681 | 35985 ft | 489 kts | 13° |
| 2026-05-07 14:35 | 42.13261 | 8.26744 | 35995 ft | 489 kts | 13° |
| 2026-05-07 14:35 | 42.19671 | 8.29813 | 35986 ft | 488 kts | 13° |
| 2026-05-07 14:36 | 42.26073 | 8.32885 | 35986 ft | 488 kts | 13° |
| 2026-05-07 14:36 | 42.32482 | 8.35966 | 35989 ft | 488 kts | 13° |
| 2026-05-07 14:37 | 42.38794 | 8.39228 | 35987 ft | 490 kts | 16° |
| 2026-05-07 14:37 | 42.48228 | 8.44608 | 35989 ft | 490 kts | 17° |
| 2026-05-07 14:38 | 42.54529 | 8.48163 | 35991 ft | 490 kts | 16° |
| 2026-05-07 14:38 | 42.60831 | 8.51683 | 35991 ft | 490 kts | 16° |
| 2026-05-07 14:39 | 42.67136 | 8.55200 | 35991 ft | 490 kts | 16° |
| 2026-05-07 14:39 | 42.73430 | 8.58719 | 35995 ft | 489 kts | 17° |
| 2026-05-07 14:40 | 42.79707 | 8.62242 | 35993 ft | 487 kts | 17° |
| 2026-05-07 14:40 | 42.85974 | 8.65766 | 35997 ft | 487 kts | 17° |
| 2026-05-07 14:41 | 42.92248 | 8.69300 | 35991 ft | 487 kts | 17° |
| 2026-05-07 14:41 | 42.98465 | 8.72812 | 35985 ft | 486 kts | 17° |
| 2026-05-07 14:42 | 43.04712 | 8.76348 | 35990 ft | 485 kts | 17° |
| 2026-05-07 14:42 | 43.10944 | 8.79882 | 36000 ft | 485 kts | 17° |
| 2026-05-07 14:43 | 43.17174 | 8.83424 | 35993 ft | 484 kts | 17° |
| 2026-05-07 14:43 | 43.23403 | 8.86973 | 35993 ft | 484 kts | 17° |
| 2026-05-07 14:44 | 43.29618 | 8.90521 | 36013 ft | 484 kts | 17° |
| 2026-05-07 14:44 | 43.35836 | 8.94044 | 35989 ft | 481 kts | 14° |
| 2026-05-07 14:45 | 43.42262 | 8.95731 | 35996 ft | 463 kts | 355° |
| 2026-05-07 14:45 | 43.48698 | 8.95904 | 36008 ft | 462 kts | 353° |
| 2026-05-07 14:46 | 43.55126 | 8.95865 | 35990 ft | 462 kts | 353° |
| 2026-05-07 14:46 | 43.61551 | 8.95821 | 35990 ft | 462 kts | 353° |
| 2026-05-07 14:47 | 43.67974 | 8.95769 | 36012 ft | 461 kts | 352° |
| 2026-05-07 14:47 | 43.74377 | 8.95558 | 35990 ft | 460 kts | 352° |
| 2026-05-07 14:48 | 43.79693 | 8.95365 | 35990 ft | 459 kts | 352° |
| 2026-05-07 14:48 | 43.86080 | 8.95157 | 35990 ft | 460 kts | 352° |
| 2026-05-07 14:49 | 43.92481 | 8.94966 | 35988 ft | 459 kts | 352° |
| 2026-05-07 14:49 | 43.98869 | 8.94779 | 35989 ft | 459 kts | 352° |
| 2026-05-07 14:50 | 44.05255 | 8.94591 | 35993 ft | 459 kts | 352° |
| 2026-05-07 14:50 | 44.11642 | 8.94402 | 35998 ft | 459 kts | 352° |
| 2026-05-07 14:51 | 44.18025 | 8.94212 | 36000 ft | 459 kts | 352° |
| 2026-05-07 14:51 | 44.24407 | 8.94021 | 35989 ft | 459 kts | 352° |
| 2026-05-07 14:52 | 44.30788 | 8.93831 | 36016 ft | 458 kts | 352° |
| 2026-05-07 14:52 | 44.37158 | 8.93641 | 36021 ft | 457 kts | 352° |
| 2026-05-07 14:53 | 44.43517 | 8.93450 | 36019 ft | 457 kts | 352° |
| 2026-05-07 14:53 | 44.49884 | 8.93259 | 36018 ft | 458 kts | 352° |
| 2026-05-07 14:54 | 44.56248 | 8.93067 | 36013 ft | 458 kts | 352° |
| 2026-05-07 14:54 | 44.62618 | 8.92876 | 36005 ft | 457 kts | 352° |
| 2026-05-07 14:55 | 44.68976 | 8.92681 | 35998 ft | 457 kts | 352° |
| 2026-05-07 14:55 | 44.75329 | 8.92487 | 35981 ft | 457 kts | 352° |
| 2026-05-07 14:56 | 44.81683 | 8.92293 | 35973 ft | 457 kts | 352° |
| 2026-05-07 14:56 | 44.88039 | 8.92101 | 35975 ft | 456 kts | 352° |
| 2026-05-07 14:57 | 44.94382 | 8.91908 | 35971 ft | 456 kts | 352° |
| 2026-05-07 14:57 | 45.00721 | 8.91715 | 35966 ft | 456 kts | 352° |
| 2026-05-07 14:58 | 45.07059 | 8.91519 | 35968 ft | 455 kts | 352° |
| 2026-05-07 14:58 | 45.13376 | 8.91327 | 35966 ft | 454 kts | 352° |
| 2026-05-07 14:59 | 45.19701 | 8.91132 | 35966 ft | 454 kts | 352° |
| 2026-05-07 14:59 | 45.26018 | 8.90937 | 35968 ft | 454 kts | 352° |
| 2026-05-07 15:00 | 45.32317 | 8.90742 | 35985 ft | 453 kts | 352° |
| 2026-05-07 15:00 | 45.38620 | 8.90546 | 35984 ft | 452 kts | 352° |
| 2026-05-07 15:01 | 45.44908 | 8.90351 | 35973 ft | 452 kts | 352° |
| 2026-05-07 15:01 | 45.51148 | 8.90157 | 35972 ft | 450 kts | 352° |
| 2026-05-07 15:02 | 45.57413 | 8.89961 | 35969 ft | 450 kts | 352° |
| 2026-05-07 15:02 | 45.63677 | 8.89765 | 35978 ft | 450 kts | 352° |
| 2026-05-07 15:03 | 45.69937 | 8.89568 | 35974 ft | 450 kts | 352° |
| 2026-05-07 15:03 | 45.73077 | 8.89468 | 35854 ft | 455 kts | 352° |
| 2026-05-07 15:03 | 45.76272 | 8.89360 | 35404 ft | 462 kts | 352° |
| 2026-05-07 15:04 | 45.79496 | 8.89255 | 34922 ft | 463 kts | 352° |
| 2026-05-07 15:04 | 45.82714 | 8.89155 | 34464 ft | 462 kts | 352° |
| 2026-05-07 15:04 | 45.85919 | 8.89058 | 33994 ft | 459 kts | 352° |
| 2026-05-07 15:04 | 45.89109 | 8.88960 | 33450 ft | 458 kts | 352° |
| 2026-05-07 15:05 | 45.92289 | 8.88860 | 32904 ft | 457 kts | 352° |
| 2026-05-07 15:05 | 45.95555 | 8.88757 | 32356 ft | 456 kts | 352° |
| 2026-05-07 15:05 | 45.98647 | 8.88657 | 31852 ft | 457 kts | 352° |
| 2026-05-07 15:05 | 46.01826 | 8.88556 | 31341 ft | 456 kts | 353° |
| 2026-05-07 15:06 | 46.04986 | 8.88461 | 30862 ft | 453 kts | 353° |
| 2026-05-07 15:06 | 46.08127 | 8.88360 | 30383 ft | 450 kts | 353° |
| 2026-05-07 15:06 | 46.11427 | 8.88252 | 29892 ft | 445 kts | 353° |
| 2026-05-07 15:06 | 46.14326 | 8.88162 | 29411 ft | 441 kts | 353° |
| 2026-05-07 15:07 | 46.17381 | 8.88079 | 28906 ft | 436 kts | 353° |
| 2026-05-07 15:07 | 46.20385 | 8.87844 | 28403 ft | 429 kts | 350° |
| 2026-05-07 15:07 | 46.23328 | 8.87404 | 27934 ft | 423 kts | 349° |
| 2026-05-07 15:07 | 46.26241 | 8.86885 | 27452 ft | 421 kts | 348° |
| 2026-05-07 15:08 | 46.29138 | 8.86356 | 26981 ft | 419 kts | 349° |
| 2026-05-07 15:08 | 46.32028 | 8.85847 | 26510 ft | 417 kts | 349° |
| 2026-05-07 15:08 | 46.34903 | 8.85369 | 26059 ft | 415 kts | 350° |
| 2026-05-07 15:08 | 46.37761 | 8.84920 | 25602 ft | 412 kts | 350° |
| 2026-05-07 15:09 | 46.40604 | 8.84486 | 25171 ft | 410 kts | 351° |
| 2026-05-07 15:09 | 46.43431 | 8.84059 | 24729 ft | 407 kts | 351° |
| 2026-05-07 15:09 | 46.46238 | 8.83630 | 24311 ft | 405 kts | 351° |
| 2026-05-07 15:09 | 46.49042 | 8.83208 | 23887 ft | 403 kts | 352° |
| 2026-05-07 15:10 | 46.51835 | 8.82790 | 23451 ft | 402 kts | 352° |
| 2026-05-07 15:10 | 46.54609 | 8.82375 | 22947 ft | 400 kts | 352° |
| 2026-05-07 15:10 | 46.57368 | 8.81961 | 22460 ft | 397 kts | 352° |
| 2026-05-07 15:10 | 46.60108 | 8.81549 | 22003 ft | 394 kts | 352° |
| 2026-05-07 15:11 | 46.62822 | 8.81139 | 21599 ft | 391 kts | 352° |
| 2026-05-07 15:11 | 46.65526 | 8.80734 | 21225 ft | 390 kts | 352° |
| 2026-05-07 15:11 | 46.68216 | 8.80328 | 20835 ft | 388 kts | 352° |
| 2026-05-07 15:11 | 46.70891 | 8.79924 | 20455 ft | 386 kts | 352° |
| 2026-05-07 15:12 | 46.73550 | 8.79521 | 20083 ft | 384 kts | 352° |
| 2026-05-07 15:12 | 46.76199 | 8.79118 | 19713 ft | 381 kts | 352° |
| 2026-05-07 15:12 | 46.78828 | 8.78720 | 19350 ft | 380 kts | 352° |
| 2026-05-07 15:12 | 46.81457 | 8.78320 | 18994 ft | 378 kts | 352° |
| 2026-05-07 15:13 | 46.84067 | 8.77921 | 18638 ft | 377 kts | 352° |
| 2026-05-07 15:13 | 46.86670 | 8.77523 | 18281 ft | 375 kts | 351° |
| 2026-05-07 15:13 | 46.89262 | 8.77127 | 17885 ft | 374 kts | 352° |
| 2026-05-07 15:13 | 46.91840 | 8.76730 | 17483 ft | 372 kts | 351° |
| 2026-05-07 15:14 | 46.94403 | 8.76335 | 17076 ft | 370 kts | 352° |
| 2026-05-07 15:14 | 46.96922 | 8.75950 | 16694 ft | 368 kts | 352° |
| 2026-05-07 15:14 | 46.99457 | 8.75554 | 16312 ft | 365 kts | 352° |
| 2026-05-07 15:14 | 47.01976 | 8.75153 | 15929 ft | 363 kts | 352° |
| 2026-05-07 15:15 | 47.04478 | 8.74754 | 15551 ft | 361 kts | 351° |
| 2026-05-07 15:15 | 47.06966 | 8.74359 | 15261 ft | 359 kts | 352° |
| 2026-05-07 15:15 | 47.09437 | 8.73863 | 14988 ft | 357 kts | 347° |
| 2026-05-07 15:15 | 47.11872 | 8.73179 | 14716 ft | 355 kts | 347° |
| 2026-05-07 15:16 | 47.14296 | 8.72491 | 14451 ft | 354 kts | 347° |
| 2026-05-07 15:16 | 47.16722 | 8.71823 | 14178 ft | 353 kts | 347° |
| 2026-05-07 15:16 | 47.19136 | 8.71171 | 13919 ft | 352 kts | 347° |
| 2026-05-07 15:16 | 47.21500 | 8.70317 | 13634 ft | 349 kts | 338° |
| 2026-05-07 15:17 | 47.23638 | 8.68694 | 13343 ft | 344 kts | 321° |
| 2026-05-07 15:17 | 47.25460 | 8.66446 | 13061 ft | 341 kts | 315° |
| 2026-05-07 15:17 | 47.27190 | 8.64069 | 12778 ft | 340 kts | 314° |
| 2026-05-07 15:17 | 47.28904 | 8.61678 | 12492 ft | 335 kts | 314° |
| 2026-05-07 15:18 | 47.30575 | 8.59333 | 12214 ft | 329 kts | 314° |
| 2026-05-07 15:18 | 47.32214 | 8.57031 | 11939 ft | 322 kts | 314° |
| 2026-05-07 15:18 | 47.33820 | 8.54773 | 11661 ft | 316 kts | 314° |
| 2026-05-07 15:18 | 47.35397 | 8.52557 | 11390 ft | 310 kts | 314° |
| 2026-05-07 15:19 | 47.36947 | 8.50377 | 11119 ft | 306 kts | 314° |
| 2026-05-07 15:19 | 47.38474 | 8.48222 | 10856 ft | 302 kts | 314° |
| 2026-05-07 15:19 | 47.39978 | 8.46098 | 10596 ft | 297 kts | 314° |
| 2026-05-07 15:19 | 47.41383 | 8.43901 | 10327 ft | 291 kts | 307° |
| 2026-05-07 15:20 | 47.42592 | 8.41537 | 10072 ft | 286 kts | 303° |
| 2026-05-07 15:20 | 47.43737 | 8.39190 | 10009 ft | 275 kts | 303° |
| 2026-05-07 15:20 | 47.44832 | 8.36937 | 9965 ft | 265 kts | 303° |
| 2026-05-07 15:20 | 47.45898 | 8.34754 | 9783 ft | 260 kts | 303° |
| 2026-05-07 15:21 | 47.46955 | 8.32595 | 9532 ft | 259 kts | 303° |
| 2026-05-07 15:21 | 47.48011 | 8.30443 | 9249 ft | 258 kts | 303° |
| 2026-05-07 15:21 | 47.49059 | 8.28297 | 8983 ft | 256 kts | 303° |
| 2026-05-07 15:21 | 47.50096 | 8.26161 | 8751 ft | 255 kts | 303° |
| 2026-05-07 15:22 | 47.51128 | 8.24044 | 8524 ft | 253 kts | 304° |
| 2026-05-07 15:22 | 47.52149 | 8.21937 | 8252 ft | 251 kts | 303° |
| 2026-05-07 15:22 | 47.53158 | 8.19841 | 8015 ft | 249 kts | 303° |
| 2026-05-07 15:22 | 47.54153 | 8.17742 | 7705 ft | 249 kts | 303° |
| 2026-05-07 15:23 | 47.55158 | 8.15664 | 7516 ft | 246 kts | 303° |
| 2026-05-07 15:23 | 47.56303 | 8.13794 | 7192 ft | 249 kts | 322° |
| 2026-05-07 15:23 | 47.57915 | 8.12898 | 7042 ft | 250 kts | 351° |
| 2026-05-07 15:23 | 47.59613 | 8.13288 | 6920 ft | 249 kts | 21° |
| 2026-05-07 15:24 | 47.60975 | 8.14816 | 6755 ft | 247 kts | 47° |
| 2026-05-07 15:24 | 47.61976 | 8.16882 | 6511 ft | 247 kts | 57° |
| 2026-05-07 15:24 | 47.62855 | 8.19075 | 6272 ft | 247 kts | 58° |
| 2026-05-07 15:24 | 47.63719 | 8.21273 | 6005 ft | 246 kts | 58° |
| 2026-05-07 15:25 | 47.64569 | 8.23474 | 5733 ft | 245 kts | 61° |
| 2026-05-07 15:25 | 47.64987 | 8.25904 | 5469 ft | 246 kts | 90° |
| 2026-05-07 15:25 | 47.64635 | 8.28372 | 5202 ft | 245 kts | 110° |
| 2026-05-07 15:25 | 47.63999 | 8.30726 | 4917 ft | 246 kts | 113° |
| 2026-05-07 15:26 | 47.63186 | 8.32947 | 4636 ft | 245 kts | 127° |
| 2026-05-07 15:26 | 47.62046 | 8.34764 | 4494 ft | 238 kts | 139° |
| 2026-05-07 15:26 | 47.60826 | 8.36387 | 4356 ft | 232 kts | 139° |
| 2026-05-07 15:26 | 47.59655 | 8.37971 | 4279 ft | 221 kts | 139° |
| 2026-05-07 15:27 | 47.58570 | 8.39462 | 4182 ft | 204 kts | 138° |
| 2026-05-07 15:27 | 47.57547 | 8.40862 | 3951 ft | 198 kts | 138° |
| 2026-05-07 15:27 | 47.56547 | 8.42239 | 3659 ft | 195 kts | 138° |
| 2026-05-07 15:27 | 47.55563 | 8.43582 | 3406 ft | 190 kts | 137° |
| 2026-05-07 15:28 | 47.54932 | 8.44445 | 3242 ft | 183 kts | 137° |
| 2026-05-07 15:28 | 47.54030 | 8.45676 | 3014 ft | 172 kts | 137° |
| 2026-05-07 15:28 | 47.53184 | 8.46831 | 2801 ft | 157 kts | 137° |
| 2026-05-07 15:28 | 47.52414 | 8.47883 | 2570 ft | 145 kts | 137° |
| 2026-05-07 15:29 | 47.51679 | 8.48883 | 2390 ft | 143 kts | 137° |
| 2026-05-07 15:29 | 47.50947 | 8.49884 | 2176 ft | 144 kts | 135° |
| 2026-05-07 15:29 | 47.50209 | 8.50891 | 1984 ft | 144 kts | 137° |
| 2026-05-07 15:29 | 47.49463 | 8.51886 | 1781 ft | 145 kts | 133° |
| 2026-05-07 15:30 | 47.48730 | 8.52900 | 1589 ft | 145 kts | 135° |
| 2026-05-07 15:30 | 47.47995 | 8.53903 | 1422 ft | 141 kts | 134° |
| 2026-05-07 15:30 | 47.47378 | 8.54745 | 1405 ft | 96 kts | 137° |
| 2026-05-07 15:30 | 47.46947 | 8.55330 | 1406 ft | 75 kts | 138° |
| 2026-05-07 15:31 | 47.46615 | 8.55778 | 1410 ft | 50 kts | 139° |
| 2026-05-07 15:31 | 47.46368 | 8.55961 | 1412 ft | 28 kts | 167° |
| 2026-05-07 15:31 | 47.46228 | 8.56001 | 1413 ft | 13 kts | 174° |
| 2026-05-07 15:31 | 47.46137 | 8.55996 | 1412 ft | 14 kts | 185° |
| 2026-05-07 15:32 | 47.46030 | 8.55980 | 1411 ft | 17 kts | 186° |
| 2026-05-07 15:32 | 47.45940 | 8.55907 | 1417 ft | 14 kts | 261° |
| 2026-05-07 15:32 | 47.45946 | 8.55764 | 1410 ft | 9 kts | 275° |
| 2026-05-07 15:32 | 47.45972 | 8.55731 | 1413 ft | 7 kts | 350° |
| 2026-05-07 15:33 | 47.46018 | 8.55734 | 1413 ft | 4 kts | 4° |
| 2026-05-07 15:33 | 47.46036 | 8.55736 | 1413 ft | 0 kts | 5° |
| 2026-05-07 15:33 | 47.46038 | 8.55737 | 1413 ft | 0 kts | 5° |